M I D A S
Marine Information and Data Acquisition System
Tripno 1270 of the Zeeleeuw from 2007-05-09 11:15:16 to 2007-05-09 14:30:53
Back to CruiseResearch ActivitiesStationsMapUnderway DataData graphs

EquipmentUnitsComment
TimeDGPSUTC
LatitudeDGPSDM.mWGS84
LongitudeDGPSDM.mWGS84
TemperatureSBE03/SBE38deg celciusITS90
ConductivitySBE21S/mITS90
SalinitySBE21 Practical Salinity Units
ChlorophylAChelsea fluorimeterg/lCalibrated in Aceton
Missing or incorrect values are displayed as -999
Sea surface data collected by the RV Zeeleeuw from 2007-05-09 11:14:07 to 2007-05-09 14:40:04
                                                                                    Next 1000 lines
Time Latitude Longitude Temperature Conductivity Salinity ChlorophylA
2007-05-09 11:14:17 51°13.6 2°56.1 20.107 0.070543 0.35827 -2.871232
2007-05-09 11:14:22 51°13.6 2°56.1 20.0275 0.070543 0.358277 -2.871232
2007-05-09 11:14:27 51°13.6 2°56.099 20.0083 0.070543 0.358277 -2.871232
2007-05-09 11:14:32 51°13.6 2°56.099 19.9946 0.070543 0.358277 -2.871232
2007-05-09 11:14:37 51°13.6 2°56.097 19.9444 0.070543 0.358277 -2.871232
2007-05-09 11:14:42 51°13.6 2°56.096 19.9694 0.070543 0.358277 -2.871232
2007-05-09 11:14:46 51°13.601 2°56.094 19.8799 0.070543 0.358283 -2.871232
2007-05-09 11:14:52 51°13.601 2°56.091 19.951 0.070543 0.358283 -2.871232
2007-05-09 11:14:57 51°13.602 2°56.088 19.9668 0.070543 0.358283 -2.871232
2007-05-09 11:15:02 51°13.603 2°56.084 19.9859 0.070543 0.358289 -2.871232
2007-05-09 11:15:07 51°13.604 2°56.08 19.9946 0.070543 0.358289 -2.871232
2007-05-09 11:15:12 51°13.605 2°56.075 20.0016 0.070543 0.358289 -2.871232
2007-05-09 11:15:16 51°13.607 2°56.071 20.0099 0.070543 0.358296 -2.871232
2007-05-09 11:15:22 51°13.608 2°56.065 19.9862 0.070543 0.358296 -2.871232
2007-05-09 11:15:27 51°13.61 2°56.06 19.9684 0.070543 0.358296 -2.871232
2007-05-09 11:15:32 51°13.611 2°56.054 19.9733 0.070543 0.358296 -2.871232
2007-05-09 11:15:36 51°13.613 2°56.049 19.9773 0.070543 0.358296 -2.871232
2007-05-09 11:15:42 51°13.615 2°56.041 20.0013 0.070543 0.358296 -2.871232
2007-05-09 11:15:47 51°13.617 2°56.034 19.9998 0.070543 0.358302 -2.871232
2007-05-09 11:15:52 51°13.619 2°56.027 19.9971 0.070543 0.358302 -2.871232
2007-05-09 11:15:56 51°13.62 2°56.021 19.9979 0.070543 0.358309 -2.871232
2007-05-09 11:16:02 51°13.623 2°56.011 20.0021 0.070543 0.358309 -2.871232
2007-05-09 11:16:07 51°13.625 2°56.003 19.6965 0.070543 0.358309 -2.871232
2007-05-09 11:16:12 51°13.627 2°55.995 19.152 0.070646 0.358596 -2.871232
2007-05-09 11:16:16 51°13.63 2°55.988 18.341 0.041008 0.204693 -2.871232
2007-05-09 11:16:21 51°13.633 2°55.979 17.3111 0.079908 0.406218 -2.871232
2007-05-09 11:16:26 51°13.636 2°55.97 16.5887 0.227596 1.217241 -2.871232
2007-05-09 11:16:32 51°13.64 2°55.958 15.5987 1.854676 11.128903 -2.871232
2007-05-09 11:16:37 51°13.643 2°55.949 15.2331 1.854676 11.128903 -2.871232
2007-05-09 11:16:42 51°13.647 2°55.939 14.9875 1.75799 10.389518 -2.871232
2007-05-09 11:16:47 51°13.65 2°55.929 14.8221 3.417944 22.103055 -2.871232
2007-05-09 11:16:52 51°13.654 2°55.92 14.6546 3.739988 25.418505 -2.871232
2007-05-09 11:16:57 51°13.658 2°55.91 14.5756 3.815133 26.85421 -2.871232
2007-05-09 11:17:02 51°13.662 2°55.9 14.4763 3.783331 27.258429 -2.871232
2007-05-09 11:17:07 51°13.665 2°55.889 14.4248 3.783331 27.258429 -2.871232
2007-05-09 11:17:12 51°13.669 2°55.88 14.3319 3.743758 27.499557 -2.871232
2007-05-09 11:17:17 51°13.672 2°55.87 14.3007 3.691337 27.453259 -2.871232
2007-05-09 11:17:22 51°13.675 2°55.861 14.292 3.688133 27.82592 -2.871232
2007-05-09 11:17:27 51°13.678 2°55.852 14.2429 3.672284 27.864153 -2.871232
2007-05-09 11:17:32 51°13.681 2°55.843 14.2177 3.658508 27.900767 -2.871232
2007-05-09 11:17:37 51°13.683 2°55.835 14.2295 3.658508 27.900767 -2.871232
2007-05-09 11:17:42 51°13.685 2°55.827 14.2223 3.644007 27.893787 -2.871232
2007-05-09 11:17:47 51°13.687 2°55.819 14.1724 3.631681 27.893544 -2.871232
2007-05-09 11:17:52 51°13.689 2°55.812 14.161 3.628263 27.923147 -2.871232
2007-05-09 11:17:56 51°13.69 2°55.806 14.1778 3.625156 27.954922 -2.871232
2007-05-09 11:18:01 51°13.691 2°55.799 14.17 3.622153 27.970088 -2.871232
2007-05-09 11:18:06 51°13.692 2°55.792 14.1396 3.622153 27.970088 -2.871232
2007-05-09 11:18:12 51°13.694 2°55.784 14.1468 3.61801 27.966703 -2.871232
2007-05-09 11:18:16 51°13.694 2°55.779 14.1278 3.610656 27.927561 -2.871232
2007-05-09 11:18:21 51°13.695 2°55.773 14.1312 3.603094 27.884705 -2.871232
2007-05-09 11:18:26 51°13.696 2°55.768 14.1159 3.595429 27.837139 -2.871232
2007-05-09 11:18:32 51°13.696 2°55.762 14.1092 3.590354 27.803607 -2.871232
2007-05-09 11:18:37 51°13.696 2°55.757 14.0887 3.590354 27.803607 -2.871232
2007-05-09 11:18:41 51°13.696 2°55.753 14.1039 3.578028 27.71029 -2.871232
2007-05-09 11:18:46 51°13.696 2°55.749 14.068 3.583621 27.768383 -2.871232
2007-05-09 11:18:52 51°13.697 2°55.744 14.0944 3.580721 27.759161 -2.871232
2007-05-09 11:18:57 51°13.697 2°55.741 14.072 3.578132 27.748205 -2.871232
2007-05-09 11:19:01 51°13.697 2°55.74 14.0655 3.575646 27.739391 -2.871232
2007-05-09 11:19:06 51°13.697 2°55.738 14.0462 3.575646 27.739391 -2.871232
2007-05-09 11:19:12 51°13.698 2°55.738 14.03 3.57575 27.751601 -2.871232
2007-05-09 11:19:16 51°13.698 2°55.738 14.0343 3.577304 27.772529 -2.871232
2007-05-09 11:19:21 51°13.698 2°55.738 14.0258 3.580204 27.80696 -2.871232
2007-05-09 11:19:26 51°13.699 2°55.738 14.0406 3.583416 27.841569 -2.871232
2007-05-09 11:19:32 51°13.7 2°55.739 14.0683 3.585177 27.868126 -2.871232
2007-05-09 11:19:36 51°13.701 2°55.739 14.0668 3.585177 27.868126 -2.871232
2007-05-09 11:19:41 51°13.701 2°55.74 14.0573 3.585177 27.878252 -2.871232
2007-05-09 11:19:46 51°13.703 2°55.741 14.0591 3.585281 27.892448 -2.871232
2007-05-09 11:19:52 51°13.705 2°55.743 14.0406 3.584245 27.890482 -2.871232
2007-05-09 11:19:56 51°13.706 2°55.744 14.0657 3.583313 27.886873 -2.871232
2007-05-09 11:20:01 51°13.709 2°55.745 14.0512 3.581759 27.869661 -2.871232
2007-05-09 11:20:07 51°13.713 2°55.746 14.0709 3.581759 27.869661 -2.871232
2007-05-09 11:20:12 51°13.716 2°55.746 14.0722 3.580412 27.853609 -2.871232
2007-05-09 11:20:17 51°13.72 2°55.746 14.0766 3.57803 27.833687 -2.871232
2007-05-09 11:20:21 51°13.724 2°55.745 14.0751 3.574612 27.805463 -2.871232
2007-05-09 11:20:26 51°13.728 2°55.744 14.0909 3.569122 27.759373 -2.871232
2007-05-09 11:20:32 51°13.734 2°55.741 14.0797 3.563322 27.706203 -2.871232
2007-05-09 11:20:37 51°13.737 2°55.737 14.0744 3.563322 27.706203 -2.871232
2007-05-09 11:20:41 51°13.741 2°55.734 14.0766 3.556175 27.643337 -2.871232
2007-05-09 11:20:46 51°13.745 2°55.73 14.1042 3.547682 27.569521 -2.871232
2007-05-09 11:20:52 51°13.751 2°55.724 14.1424 3.541157 27.512685 -2.871232
2007-05-09 11:20:57 51°13.756 2°55.718 14.1422 3.5366 27.470941 -2.871232
2007-05-09 11:21:01 51°13.76 2°55.713 14.1407 3.533596 27.443833 -2.871232
2007-05-09 11:21:06 51°13.766 2°55.707 14.1635 3.533596 27.443833 -2.871232
2007-05-09 11:21:11 51°13.772 2°55.7 14.1678 3.530489 27.418954 -2.871232
2007-05-09 11:21:17 51°13.78 2°55.692 14.166 3.521686 27.340698 -2.871232
2007-05-09 11:21:22 51°13.787 2°55.685 14.1704 3.501905 27.158839 -2.871232
2007-05-09 11:21:26 51°13.792 2°55.68 14.1638 3.482539 26.98023 -2.871232
2007-05-09 11:21:32 51°13.801 2°55.672 14.1431 3.468766 26.854131 -2.871232
2007-05-09 11:21:36 51°13.807 2°55.667 14.1308 3.468766 26.854131 -2.871232
2007-05-09 11:21:42 51°13.817 2°55.658 14.1082 3.46276 26.794733 -2.871232
2007-05-09 11:21:46 51°13.823 2°55.653 14.1163 3.458618 26.751351 -2.871232
2007-05-09 11:21:52 51°13.833 2°55.644 14.0878 3.450748 26.680315 -2.871232
2007-05-09 11:21:56 51°13.84 2°55.638 14.0572 3.447745 26.652188 -2.871232
2007-05-09 11:22:02 51°13.851 2°55.63 14.0331 3.45168 26.6889 -2.871232
2007-05-09 11:22:07 51°13.859 2°55.622 14.0049 3.45168 26.6889 -2.871232
2007-05-09 11:22:12 51°13.869 2°55.615 14.0279 3.460586 26.774275 -2.871232
2007-05-09 11:22:16 51°13.876 2°55.609 13.9692 3.472494 26.886103 -2.871232
2007-05-09 11:22:21 51°13.886 2°55.602 13.9749 3.484507 26.999569 -2.871232
2007-05-09 11:22:27 51°13.898 2°55.594 13.9676 3.497245 27.123102 -2.871232
2007-05-09 11:22:32 51°13.909 2°55.586 13.9553 3.514748 27.294017 -2.871232
2007-05-09 11:22:36 51°13.917 2°55.58 13.9478 3.514748 27.294017 -2.871232
2007-05-09 11:22:41 51°13.928 2°55.572 13.936 3.529869 27.444153 -2.871232
2007-05-09 11:22:46 51°13.939 2°55.565 13.9178 3.542194 27.566075 -2.871232
2007-05-09 11:22:52 51°13.952 2°55.556 13.9157 3.551515 27.659735 -2.871232
2007-05-09 11:22:57 51°13.963 2°55.549 13.9214 3.561148 27.753675 -2.871232
2007-05-09 11:23:01 51°13.972 2°55.543 13.9214 3.568813 27.829435 -2.871232
2007-05-09 11:23:06 51°13.983 2°55.535 13.9259 3.568813 27.829435 -2.871232
2007-05-09 11:23:12 51°13.997 2°55.526 13.9293 3.578653 27.927915 -2.871232
2007-05-09 11:23:16 51°14.006 2°55.52 13.9389 3.585489 27.996674 -2.871232
2007-05-09 11:23:21 51°14.017 2°55.512 13.9173 3.595848 28.096022 -2.871232
2007-05-09 11:23:26 51°14.029 2°55.505 13.9171 3.602477 28.158635 -2.871232
2007-05-09 11:23:31 51°14.041 2°55.497 13.9085 3.607657 28.206129 -2.871232
2007-05-09 11:23:36 51°14.052 2°55.489 13.8895 3.607657 28.206129 -2.871232
2007-05-09 11:23:41 51°14.064 2°55.481 13.8807 3.611386 28.23848 -2.871232
2007-05-09 11:23:46 51°14.075 2°55.472 13.8883 3.613872 28.25876 -2.871232
2007-05-09 11:23:52 51°14.089 2°55.462 13.8792 3.617394 28.290612 -2.871232
2007-05-09 11:23:56 51°14.098 2°55.454 13.8733 3.621952 28.333405 -2.871232
2007-05-09 11:24:02 51°14.112 2°55.444 13.8693 3.628168 28.39385 -2.871232
2007-05-09 11:24:07 51°14.123 2°55.435 13.8734 3.628168 28.39385 -2.871232
2007-05-09 11:24:12 51°14.134 2°55.426 13.8877 3.633969 28.452688 -2.871232
2007-05-09 11:24:16 51°14.144 2°55.419 13.8883 3.642878 28.539249 -2.871232
2007-05-09 11:24:22 51°14.157 2°55.407 13.9155 3.647851 28.586414 -2.871232
2007-05-09 11:24:27 51°14.169 2°55.397 13.9012 3.651062 28.618932 -2.871232
2007-05-09 11:24:32 51°14.181 2°55.386 13.8972 3.651062 28.624168 -2.871232
2007-05-09 11:24:36 51°14.191 2°55.378 13.8971 3.651062 28.624168 -2.871232
2007-05-09 11:24:41 51°14.202 2°55.366 13.9026 3.650855 28.624984 -2.871232
2007-05-09 11:24:47 51°14.216 2°55.35 13.9039 3.650337 28.617857 -2.871232
2007-05-09 11:24:52 51°14.227 2°55.336 13.9183 3.649301 28.603608 -2.871232
2007-05-09 11:24:57 51°14.238 2°55.321 13.9251 3.645364 28.562175 -2.871232
2007-05-09 11:25:01 51°14.246 2°55.309 13.929 3.645882 28.566027 -2.871232
2007-05-09 11:25:06 51°14.256 2°55.293 13.9341 3.645882 28.566027 -2.871232
2007-05-09 11:25:12 51°14.268 2°55.273 13.9532 3.647436 28.580196 -2.871232
2007-05-09 11:25:17 51°14.278 2°55.257 13.9604 3.648265 28.587404 -2.871232
2007-05-09 11:25:21 51°14.286 2°55.242 13.9601 3.645261 28.558663 -2.871232
2007-05-09 11:25:26 51°14.295 2°55.224 13.9665 3.645986 28.559094 -2.871232
2007-05-09 11:25:32 51°14.307 2°55.202 13.9655 3.647747 28.569184 -2.871232
2007-05-09 11:25:37 51°14.316 2°55.182 13.9524 3.647747 28.569184 -2.871232
2007-05-09 11:25:42 51°14.326 2°55.162 13.9416 3.641635 28.510843 -2.871232
2007-05-09 11:25:46 51°14.334 2°55.146 13.9246 3.644742 28.529379 -2.871232
2007-05-09 11:25:52 51°14.345 2°55.122 13.9212 3.643603 28.511666 -2.871232
2007-05-09 11:25:57 51°14.354 2°55.101 13.8971 3.644846 28.517906 -2.871232
2007-05-09 11:26:01 51°14.361 2°55.084 13.8788 3.645571 28.520949 -2.871232
2007-05-09 11:26:06 51°14.37 2°55.063 13.8776 3.645571 28.520949 -2.871232
2007-05-09 11:26:12 51°14.381 2°55.037 13.8546 3.647228 28.537297 -2.871232
2007-05-09 11:26:16 51°14.388 2°55.019 13.8453 3.650544 28.573264 -2.871232
2007-05-09 11:26:21 51°14.397 2°54.996 13.8318 3.65676 28.63643 -2.871232
2007-05-09 11:26:27 51°14.407 2°54.969 13.8269 3.661214 28.683678 -2.871232
2007-05-09 11:26:32 51°14.416 2°54.945 13.8085 3.666498 28.742772 -2.871232
2007-05-09 11:26:36 51°14.422 2°54.926 13.8148 3.666498 28.742772 -2.871232
2007-05-09 11:26:41 51°14.431 2°54.902 13.8045 3.67489 28.828344 -2.871232
2007-05-09 11:26:47 51°14.441 2°54.872 13.8056 3.678931 28.875429 -2.871232
2007-05-09 11:26:52 51°14.449 2°54.847 13.7991 3.678517 28.884375 -2.871232
2007-05-09 11:26:56 51°14.456 2°54.827 13.8171 3.687634 28.974498 -2.871232
2007-05-09 11:27:01 51°14.465 2°54.801 13.8126 3.692607 29.027869 -2.871232
2007-05-09 11:27:06 51°14.475 2°54.776 13.8027 3.692607 29.027869 -2.871232
2007-05-09 11:27:12 51°14.486 2°54.745 13.7918 3.693644 29.043569 -2.871232
2007-05-09 11:27:17 51°14.495 2°54.72 13.7704 3.702554 29.12874 -2.871232
2007-05-09 11:27:21 51°14.503 2°54.7 13.7285 3.71105 29.206343 -2.871232
2007-05-09 11:27:26 51°14.513 2°54.675 13.7057 3.719753 29.282446 -2.871232
2007-05-09 11:27:32 51°14.524 2°54.644 13.683 3.733949 29.40528 -2.871232
2007-05-09 11:27:37 51°14.534 2°54.619 13.681 3.733949 29.40528 -2.871232
2007-05-09 11:27:41 51°14.541 2°54.598 13.708 3.75032 29.551975 -2.871232
2007-05-09 11:27:46 51°14.551 2°54.573 13.6792 3.76576 29.693357 -2.871232
2007-05-09 11:27:51 51°14.56 2°54.547 13.6658 3.774361 29.781736 -2.871232
2007-05-09 11:27:57 51°14.571 2°54.516 13.6562 3.793015 29.968118 -2.871232
2007-05-09 11:28:01 51°14.579 2°54.495 13.6539 3.801824 30.067623 -2.871232
2007-05-09 11:28:06 51°14.588 2°54.469 13.6461 3.801824 30.067623 -2.871232
2007-05-09 11:28:12 51°14.597 2°54.437 13.6437 3.808249 30.138693 -2.871232
2007-05-09 11:28:16 51°14.603 2°54.415 13.6476 3.814675 30.202201 -2.871232
2007-05-09 11:28:21 51°14.611 2°54.387 13.6433 3.820582 30.26537 -2.871232
2007-05-09 11:28:26 51°14.618 2°54.359 13.6355 3.817266 30.247293 -2.871232
2007-05-09 11:28:32 51°14.626 2°54.326 13.6284 3.827319 30.344297 -2.871232
2007-05-09 11:28:36 51°14.632 2°54.303 13.626 3.827319 30.344297 -2.871232
2007-05-09 11:28:41 51°14.638 2°54.275 13.6302 3.832916 30.399264 -2.871232
2007-05-09 11:28:47 51°14.646 2°54.241 13.6395 3.83447 30.417888 -2.871232
2007-05-09 11:28:52 51°14.653 2°54.212 13.6361 3.837476 30.447221 -2.871232
2007-05-09 11:28:56 51°14.658 2°54.189 13.642 3.837372 30.45122 -2.871232
2007-05-09 11:29:01 51°14.665 2°54.161 13.645 3.838927 30.46916 -2.871232
2007-05-09 11:29:06 51°14.672 2°54.132 13.6439 3.838927 30.46916 -2.871232
2007-05-09 11:29:12 51°14.679 2°54.098 13.6469 3.842451 30.504499 -2.871232
2007-05-09 11:29:17 51°14.685 2°54.069 13.6517 3.845457 30.531753 -2.871232
2007-05-09 11:29:21 51°14.69 2°54.046 13.6487 3.841415 30.494642 -2.871232
2007-05-09 11:29:26 51°14.695 2°54.017 13.6613 3.845871 30.531895 -2.871232
2007-05-09 11:29:32 51°14.701 2°53.982 13.6603 3.84867 30.553796 -2.871232
2007-05-09 11:29:37 51°14.706 2°53.952 13.6634 3.84867 30.553796 -2.871232
2007-05-09 11:29:41 51°14.709 2°53.928 13.6713 3.847115 30.538655 -2.871232
2007-05-09 11:29:46 51°14.712 2°53.898 13.665 3.849706 30.561542 -2.871232
2007-05-09 11:29:51 51°14.714 2°53.868 13.6713 3.850639 30.568372 -2.871232
2007-05-09 11:29:56 51°14.716 2°53.838 13.6888 3.851675 30.574003 -2.871232
2007-05-09 11:30:01 51°14.717 2°53.808 13.6853 3.852815 30.581253 -2.871232
2007-05-09 11:30:06 51°14.719 2°53.778 13.6947 3.852815 30.581253 -2.871232
2007-05-09 11:30:12 51°14.72 2°53.742 13.6904 3.856235 30.608641 -2.871232
2007-05-09 11:30:17 51°14.72 2°53.711 13.6658 3.857168 30.614058 -2.871232
2007-05-09 11:30:21 51°14.721 2°53.687 13.6354 3.856028 30.603283 -2.871232
2007-05-09 11:30:26 51°14.721 2°53.657 13.6337 3.86007 30.633337 -2.871232
2007-05-09 11:30:32 51°14.723 2°53.62 13.6278 3.858412 30.612343 -2.871232
2007-05-09 11:30:36 51°14.723 2°53.596 13.6104 3.858412 30.612343 -2.871232
2007-05-09 11:30:41 51°14.725 2°53.565 13.6009 3.863283 30.65112 -2.871232
2007-05-09 11:30:47 51°14.726 2°53.529 13.5931 3.863179 30.648792 -2.871232
2007-05-09 11:30:52 51°14.728 2°53.498 13.5786 3.861832 30.646073 -2.871232
2007-05-09 11:30:56 51°14.728 2°53.474 13.5644 3.86774 30.712406 -2.871232
2007-05-09 11:31:01 51°14.73 2°53.443 13.5502 3.865875 30.707245 -2.871232
2007-05-09 11:31:06 51°14.731 2°53.412 13.5352 3.865875 30.707245 -2.871232
2007-05-09 11:31:12 51°14.732 2°53.376 13.5211 3.866497 30.725498 -2.871232
2007-05-09 11:31:16 51°14.733 2°53.352 13.5252 3.868777 30.7556 -2.871232
2007-05-09 11:31:21 51°14.734 2°53.322 13.515 3.871058 30.786435 -2.871232
2007-05-09 11:31:27 51°14.736 2°53.285 13.5042 3.866497 30.758855 -2.871232
2007-05-09 11:31:32 51°14.737 2°53.255 13.4925 3.87168 30.815421 -2.871232
2007-05-09 11:31:37 51°14.739 2°53.225 13.4908 3.87168 30.815421 -2.871232
2007-05-09 11:31:41 51°14.74 2°53.201 13.496 3.868674 30.801607 -2.871232
2007-05-09 11:31:46 51°14.742 2°53.171 13.4914 3.865462 30.786661 -2.871232
2007-05-09 11:31:52 51°14.744 2°53.135 13.4715 3.865669 30.796334 -2.871232
2007-05-09 11:31:56 51°14.745 2°53.111 13.467 3.862663 30.776805 -2.871232
2007-05-09 11:32:01 51°14.746 2°53.081 13.4595 3.866913 30.824478 -2.871232
2007-05-09 11:32:06 51°14.748 2°53.051 13.4583 3.866913 30.824478 -2.871232
2007-05-09 11:32:12 51°14.749 2°53.014 13.4545 3.862767 30.794115 -2.871232
2007-05-09 11:32:17 51°14.75 2°52.983 13.4641 3.863285 30.80228 -2.871232
2007-05-09 11:32:21 51°14.751 2°52.959 13.4462 3.866291 30.833238 -2.871232
2007-05-09 11:32:26 51°14.751 2°52.929 13.4316 3.867224 30.850807 -2.871232
2007-05-09 11:32:32 51°14.752 2°52.892 13.4305 3.861835 30.81081 -2.871232
2007-05-09 11:32:37 51°14.753 2°52.862 13.4418 3.861835 30.81081 -2.871232
2007-05-09 11:32:41 51°14.754 2°52.837 13.4382 3.865877 30.853856 -2.871232
2007-05-09 11:32:46 51°14.756 2°52.806 13.4251 3.868468 30.881886 -2.871232
2007-05-09 11:32:51 51°14.757 2°52.776 13.4336 3.867121 30.871346 -2.871232
2007-05-09 11:32:56 51°14.759 2°52.746 13.4496 3.86878 30.894678 -2.871232
2007-05-09 11:33:02 51°14.761 2°52.709 13.43 3.868261 30.896522 -2.871232
2007-05-09 11:33:06 51°14.763 2°52.684 13.4421 3.868261 30.896522 -2.871232
2007-05-09 11:33:12 51°14.765 2°52.648 13.4676 3.864426 30.862431 -2.871232
2007-05-09 11:33:16 51°14.766 2°52.623 13.4766 3.86878 30.902563 -2.871232
2007-05-09 11:33:22 51°14.768 2°52.586 13.4805 3.862872 30.853623 -2.871232
2007-05-09 11:33:26 51°14.769 2°52.562 13.4803 3.862768 30.851986 -2.871232
2007-05-09 11:33:32 51°14.77 2°52.525 13.4702 3.867432 30.893451 -2.871232
2007-05-09 11:33:37 51°14.771 2°52.494 13.4536 3.867432 30.893451 -2.871232
2007-05-09 11:33:41 51°14.772 2°52.469 13.4644 3.860177 30.828953 -2.871232
2007-05-09 11:33:47 51°14.773 2°52.432 13.4974 3.863286 30.847288 -2.871232
2007-05-09 11:33:52 51°14.773 2°52.401 13.5144 3.869505 30.892529 -2.871232
2007-05-09 11:33:56 51°14.774 2°52.376 13.5439 3.864011 30.83657 -2.871232
2007-05-09 11:34:01 51°14.774 2°52.345 13.5565 3.861109 30.807938 -2.871232
2007-05-09 11:34:06 51°14.775 2°52.314 13.5728 3.861109 30.807938 -2.871232
2007-05-09 11:34:12 51°14.776 2°52.276 13.5867 3.869816 30.89171 -2.871232
2007-05-09 11:34:16 51°14.776 2°52.251 13.6005 3.867743 30.874008 -2.871232
2007-05-09 11:34:21 51°14.778 2°52.22 13.6064 3.861835 30.81081 -2.871232
2007-05-09 11:34:26 51°14.779 2°52.189 13.609 3.860176 30.776115 -2.871232
2007-05-09 11:34:32 51°14.781 2°52.152 13.5939 3.873443 30.878845 -2.871232
2007-05-09 11:34:37 51°14.782 2°52.12 13.5906 3.873443 30.878845 -2.871232
2007-05-09 11:34:41 51°14.783 2°52.095 13.5946 3.874375 30.869258 -2.871232
2007-05-09 11:34:46 51°14.785 2°52.064 13.5898 3.875101 30.860701 -2.871232
2007-05-09 11:34:51 51°14.786 2°52.033 13.607 3.875308 30.848986 -2.871232
2007-05-09 11:34:57 51°14.787 2°51.995 13.5975 3.875308 30.839008 -2.871232
2007-05-09 11:35:02 51°14.789 2°51.964 13.5992 3.875515 30.83942 -2.871232
2007-05-09 11:35:06 51°14.79 2°51.938 13.5913 3.875515 30.83942 -2.871232
2007-05-09 11:35:12 51°14.791 2°51.901 13.6006 3.875515 30.840845 -2.871232
2007-05-09 11:35:16 51°14.791 2°51.876 13.5999 3.874893 30.836048 -2.871232
2007-05-09 11:35:22 51°14.793 2°51.838 13.6009 3.874375 30.831458 -2.871232
2007-05-09 11:35:26 51°14.793 2°51.812 13.59 3.873753 30.823101 -2.871232
2007-05-09 11:35:32 51°14.795 2°51.775 13.5929 3.873235 30.8178 -2.871232
2007-05-09 11:35:36 51°14.796 2°51.75 13.581 3.873235 30.8178 -2.871232
2007-05-09 11:35:42 51°14.798 2°51.712 13.5796 3.872924 30.815758 -2.871232
2007-05-09 11:35:47 51°14.799 2°51.68 13.5693 3.872302 30.809539 -2.871232
2007-05-09 11:35:52 51°14.801 2°51.649 13.5646 3.871991 30.805362 -2.871232
2007-05-09 11:35:56 51°14.802 2°51.624 13.5525 3.871887 30.805156 -2.871232
2007-05-09 11:36:01 51°14.803 2°51.593 13.5433 3.871473 30.802907 -2.871232
2007-05-09 11:36:07 51°14.805 2°51.555 13.5409 3.871473 30.802907 -2.871232
2007-05-09 11:36:12 51°14.807 2°51.524 13.5275 3.871473 30.807889 -2.871232
2007-05-09 11:36:16 51°14.808 2°51.499 13.4952 3.871162 30.810118 -2.871232
2007-05-09 11:36:21 51°14.809 2°51.467 13.4925 3.871058 30.814184 -2.871232
2007-05-09 11:36:26 51°14.811 2°51.436 13.4919 3.870644 30.818347 -2.871232
2007-05-09 11:36:32 51°14.812 2°51.398 13.4847 3.870333 30.824142 -2.871232
2007-05-09 11:36:37 51°14.814 2°51.367 13.4916 3.870333 30.824142 -2.871232
2007-05-09 11:36:41 51°14.815 2°51.342 13.4864 3.870022 30.826376 -2.871232
2007-05-09 11:36:46 51°14.816 2°51.31 13.47 3.870126 30.837995 -2.871232
2007-05-09 11:36:52 51°14.817 2°51.273 13.4731 3.870126 30.850844 -2.871232
2007-05-09 11:36:57 51°14.819 2°51.241 13.4741 3.869712 30.860025 -2.871232
2007-05-09 11:37:01 51°14.82 2°51.216 13.4572 3.869297 30.862063 -2.871232
2007-05-09 11:37:06 51°14.821 2°51.185 13.4492 3.869297 30.862063 -2.871232
2007-05-09 11:37:11 51°14.822 2°51.153 13.4566 3.868883 30.863387 -2.871232
2007-05-09 11:37:17 51°14.824 2°51.116 13.4659 3.868779 30.864612 -2.871232
2007-05-09 11:37:22 51°14.825 2°51.084 13.4393 3.868883 30.871255 -2.871232
2007-05-09 11:37:26 51°14.826 2°51.059 13.4356 3.868468 30.872581 -2.871232
2007-05-09 11:37:32 51°14.827 2°51.021 13.4039 3.868779 30.881785 -2.871232
2007-05-09 11:37:36 51°14.829 2°50.996 13.407 3.868779 30.881785 -2.871232
2007-05-09 11:37:42 51°14.83 2°50.958 13.3911 3.868883 30.889151 -2.871232
2007-05-09 11:37:46 51°14.832 2°50.933 13.3956 3.868779 30.890379 -2.871232
2007-05-09 11:37:52 51°14.834 2°50.896 13.3937 3.868883 30.89345 -2.871232
2007-05-09 11:37:56 51°14.835 2°50.871 13.3888 3.868572 30.897136 -2.871232
2007-05-09 11:38:01 51°14.836 2°50.839 13.4094 3.870127 30.92387 -2.871232
2007-05-09 11:38:07 51°14.838 2°50.801 13.3883 3.870127 30.92387 -2.871232
2007-05-09 11:38:12 51°14.839 2°50.77 13.375 3.870127 30.933203 -2.871232
2007-05-09 11:38:16 51°14.841 2°50.745 13.383 3.870335 30.942231 -2.871232
2007-05-09 11:38:21 51°14.842 2°50.713 13.3761 3.870542 30.951982 -2.871232
2007-05-09 11:38:27 51°14.844 2°50.676 13.3817 3.87075 30.959581 -2.871232
2007-05-09 11:38:32 51°14.845 2°50.644 13.3894 3.87075 30.959581 -2.871232
2007-05-09 11:38:36 51°14.846 2°50.619 13.4136 3.87075 30.959581 -2.871232
2007-05-09 11:38:41 51°14.848 2°50.587 13.4151 3.870957 30.963585 -2.871232
2007-05-09 11:38:46 51°14.849 2°50.556 13.4377 3.871268 30.972111 -2.871232
2007-05-09 11:38:52 51°14.851 2°50.518 13.4294 3.871164 30.974067 -2.871232
2007-05-09 11:38:57 51°14.853 2°50.487 13.4497 3.87075 30.973254 -2.871232
2007-05-09 11:39:01 51°14.854 2°50.462 13.4609 3.870335 30.966682 -2.871232
2007-05-09 11:39:06 51°14.855 2°50.43 13.4711 3.870335 30.966682 -2.871232
2007-05-09 11:39:11 51°14.857 2°50.399 13.4814 3.869817 30.954872 -2.871232
2007-05-09 11:39:17 51°14.858 2°50.361 13.4873 3.869713 30.94604 -2.871232
2007-05-09 11:39:21 51°14.858 2°50.336 13.4787 3.869609 30.935775 -2.871232
2007-05-09 11:39:26 51°14.859 2°50.304 13.4915 3.870024 30.932281 -2.871232
2007-05-09 11:39:32 51°14.859 2°50.267 13.5037 3.870024 30.91936 -2.871232
2007-05-09 11:39:36 51°14.859 2°50.242 13.4911 3.870024 30.91936 -2.871232
2007-05-09 11:39:42 51°14.858 2°50.204 13.4832 3.86992 30.906963 -2.871232
2007-05-09 11:39:46 51°14.855 2°50.18 13.4815 3.870023 30.89785 -2.871232
2007-05-09 11:39:52 51°14.851 2°50.143 13.4756 3.870334 30.895599 -2.871232
2007-05-09 11:39:56 51°14.849 2°50.118 13.49 3.870438 30.893655 -2.871232
2007-05-09 11:40:01 51°14.846 2°50.087 13.4898 3.87023 30.885369 -2.871232
2007-05-09 11:40:07 51°14.843 2°50.049 13.4839 3.87023 30.885369 -2.871232
2007-05-09 11:40:12 51°14.841 2°50.019 13.4806 3.870541 30.885984 -2.871232
2007-05-09 11:40:16 51°14.839 2°49.995 13.4778 3.871059 30.892734 -2.871232
2007-05-09 11:40:21 51°14.837 2°49.965 13.472 3.871681 30.90184 -2.871232
2007-05-09 11:40:27 51°14.834 2°49.93 13.486 3.871992 30.904602 -2.871232
2007-05-09 11:40:32 51°14.832 2°49.901 13.4867 3.872096 30.903374 -2.871232
2007-05-09 11:40:36 51°14.83 2°49.878 13.4778 3.872096 30.903374 -2.871232
2007-05-09 11:40:41 51°14.828 2°49.849 13.4879 3.872511 30.906341 -2.871232
2007-05-09 11:40:46 51°14.826 2°49.82 13.4883 3.873132 30.914015 -2.871232
2007-05-09 11:40:52 51°14.824 2°49.786 13.4876 3.873547 30.919132 -2.871232
2007-05-09 11:40:57 51°14.822 2°49.757 13.4785 3.873754 30.920257 -2.871232
2007-05-09 11:41:01 51°14.82 2°49.733 13.4778 3.874065 30.920869 -2.871232
2007-05-09 11:41:06 51°14.818 2°49.703 13.4863 3.874065 30.920869 -2.871232
2007-05-09 11:41:12 51°14.816 2°49.667 13.4837 3.874687 30.927828 -2.871232
2007-05-09 11:41:17 51°14.814 2°49.636 13.4719 3.874791 30.927315 -2.871232
2007-05-09 11:41:21 51°14.812 2°49.611 13.481 3.874894 30.926086 -2.871232
2007-05-09 11:41:26 51°14.81 2°49.58 13.4627 3.875205 30.929565 -2.871232
2007-05-09 11:41:32 51°14.808 2°49.543 13.4743 3.875516 30.935195 -2.871232
2007-05-09 11:41:37 51°14.806 2°49.512 13.4636 3.875516 30.935195 -2.871232
2007-05-09 11:41:42 51°14.804 2°49.48 13.4588 3.875413 30.934275 -2.871232
2007-05-09 11:41:46 51°14.802 2°49.455 13.4572 3.875413 30.934275 -2.871232
2007-05-09 11:41:52 51°14.8 2°49.417 13.4635 3.875413 30.935709 -2.871232
2007-05-09 11:41:57 51°14.798 2°49.386 13.4502 3.875517 30.939498 -2.871232
2007-05-09 11:42:01 51°14.796 2°49.36 13.4563 3.875413 30.941447 -2.871232
2007-05-09 11:42:06 51°14.795 2°49.329 13.4577 3.875413 30.941447 -2.871232
2007-05-09 11:42:12 51°14.793 2°49.291 13.4597 3.875309 30.941243 -2.871232
2007-05-09 11:42:16 51°14.791 2°49.266 13.4615 3.875413 30.947905 -2.871232
2007-05-09 11:42:22 51°14.79 2°49.228 13.4568 3.875102 30.947294 -2.871232
2007-05-09 11:42:27 51°14.788 2°49.196 13.4488 3.874998 30.948526 -2.871232
2007-05-09 11:42:32 51°14.786 2°49.164 13.456 3.874999 30.951397 -2.871232
2007-05-09 11:42:36 51°14.785 2°49.139 13.4593 3.874999 30.951397 -2.871232
2007-05-09 11:42:41 51°14.783 2°49.107 13.452 3.874791 30.949554 -2.871232
2007-05-09 11:42:47 51°14.781 2°49.07 13.4522 3.874584 30.945558 -2.871232
2007-05-09 11:42:52 51°14.779 2°49.038 13.457 3.874688 30.946479 -2.871232
2007-05-09 11:42:56 51°14.778 2°49.013 13.4565 3.874791 30.949554 -2.871232
2007-05-09 11:43:01 51°14.777 2°48.981 13.4659 3.874999 30.952115 -2.871232
2007-05-09 11:43:07 51°14.775 2°48.943 13.4632 3.874999 30.952115 -2.871232
2007-05-09 11:43:12 51°14.774 2°48.912 13.4594 3.874895 30.951912 -2.871232
2007-05-09 11:43:17 51°14.772 2°48.88 13.4625 3.874999 30.954269 -2.871232
2007-05-09 11:43:21 51°14.771 2°48.855 13.4615 3.87531 30.957752 -2.871232
2007-05-09 11:43:26 51°14.769 2°48.823 13.462 3.87562 30.959081 -2.871232
2007-05-09 11:43:32 51°14.767 2°48.785 13.4651 3.875931 30.958973 -2.871232
2007-05-09 11:43:37 51°14.766 2°48.753 13.4605 3.875931 30.958973 -2.871232
2007-05-09 11:43:41 51°14.764 2°48.728 13.4556 3.87645 30.962145 -2.871232
2007-05-09 11:43:46 51°14.763 2°48.696 13.448 3.877072 30.967674 -2.871232
2007-05-09 11:43:52 51°14.761 2°48.658 13.4448 3.877382 30.96972 -2.871232
2007-05-09 11:43:57 51°14.759 2°48.627 13.4458 3.87759 30.970845 -2.871232
2007-05-09 11:44:01 51°14.758 2°48.601 13.455 3.877901 30.972891 -2.871232
2007-05-09 11:44:06 51°14.756 2°48.569 13.4449 3.877901 30.972891 -2.871232
2007-05-09 11:44:12 51°14.754 2°48.531 13.4507 3.878212 30.975656 -2.871232
2007-05-09 11:44:17 51°14.753 2°48.5 13.4458 3.878523 30.979858 -2.871232
2007-05-09 11:44:21 51°14.751 2°48.474 13.4465 3.879041 30.989497 -2.871232
2007-05-09 11:44:26 51°14.75 2°48.443 13.4386 3.879352 30.996577 -2.871232
2007-05-09 11:44:32 51°14.748 2°48.404 13.4442 3.879352 30.995858 -2.871232
2007-05-09 11:44:36 51°14.747 2°48.379 13.4371 3.879352 30.995858 -2.871232
2007-05-09 11:44:42 51°14.745 2°48.341 13.4301 3.879559 30.997702 -2.871232
2007-05-09 11:44:47 51°14.744 2°48.31 13.4315 3.879974 31.00139 -2.871232
2007-05-09 11:44:52 51°14.742 2°48.278 13.4421 3.880492 31.007438 -2.871232
2007-05-09 11:44:56 51°14.74 2°48.253 13.4573 3.880907 31.012565 -2.871232
2007-05-09 11:45:01 51°14.739 2°48.221 13.4514 3.881529 31.020977 -2.871232
2007-05-09 11:45:06 51°14.737 2°48.189 13.4508 3.881529 31.020977 -2.871232
2007-05-09 11:45:12 51°14.735 2°48.152 13.4516 3.882254 31.030313 -2.871232
2007-05-09 11:45:17 51°14.734 2°48.12 13.463 3.883395 31.044061 -2.871232
2007-05-09 11:45:21 51°14.733 2°48.095 13.4613 3.884224 31.05144 -2.871232
2007-05-09 11:45:26 51°14.731 2°48.063 13.4599 3.884846 31.05265 -2.871232
2007-05-09 11:45:32 51°14.73 2°48.026 13.4611 3.885778 31.056627 -2.871232
2007-05-09 11:45:37 51°14.728 2°47.994 13.4474 3.885778 31.056627 -2.871232
2007-05-09 11:45:41 51°14.727 2°47.969 13.4431 3.886815 31.064408 -2.871232
2007-05-09 11:45:46 51°14.726 2°47.938 13.445 3.887437 31.067779 -2.871232
2007-05-09 11:45:51 51°14.725 2°47.906 13.4409 3.887644 31.065299 -2.871232
2007-05-09 11:45:57 51°14.723 2°47.869 13.4505 3.887955 31.065903 -2.871232
2007-05-09 11:46:01 51°14.722 2°47.843 13.4443 3.888162 31.067747 -2.871232
2007-05-09 11:46:06 51°14.72 2°47.812 13.4203 3.888162 31.067747 -2.871232
2007-05-09 11:46:12 51°14.718 2°47.774 13.4254 3.888473 31.073396 -2.871232
2007-05-09 11:46:17 51°14.717 2°47.743 13.4143 3.888784 31.080489 -2.871232
2007-05-09 11:46:21 51°14.716 2°47.718 13.4081 3.888888 31.082854 -2.871232
2007-05-09 11:46:26 51°14.714 2°47.686 13.4001 3.888784 31.084096 -2.871232
2007-05-09 11:46:32 51°14.713 2°47.648 13.3915 3.888577 31.083693 -2.871232
2007-05-09 11:46:37 51°14.711 2°47.617 13.3782 3.888577 31.083693 -2.871232
2007-05-09 11:46:42 51°14.71 2°47.585 13.3688 3.888992 31.093878 -2.871232
2007-05-09 11:46:47 51°14.708 2°47.554 13.3565 3.889096 31.100576 -2.871232
2007-05-09 11:46:52 51°14.706 2°47.522 13.3462 3.889199 31.107999 -2.871232
2007-05-09 11:46:56 51°14.705 2°47.497 13.3489 3.88951 31.117272 -2.871232
2007-05-09 11:47:02 51°14.704 2°47.459 13.3546 3.890132 31.130766 -2.871232
2007-05-09 11:47:06 51°14.703 2°47.434 13.3571 3.890132 31.130766 -2.871232
2007-05-09 11:47:12 51°14.701 2°47.396 13.357 3.890547 31.144591 -2.871232
2007-05-09 11:47:16 51°14.7 2°47.371 13.3623 3.890962 31.158425 -2.871232
2007-05-09 11:47:21 51°14.698 2°47.339 13.3645 3.891169 31.169695 -2.871232
2007-05-09 11:47:27 51°14.696 2°47.301 13.372 3.890859 31.174898 -2.871232
2007-05-09 11:47:32 51°14.695 2°47.27 13.3683 3.890237 31.172251 -2.871232
2007-05-09 11:47:37 51°14.694 2°47.238 13.3636 3.890237 31.172251 -2.871232
2007-05-09 11:47:41 51°14.693 2°47.213 13.3677 3.889407 31.163403 -2.871232
2007-05-09 11:47:46 51°14.691 2°47.181 13.3737 3.889407 31.161953 -2.871232
2007-05-09 11:47:52 51°14.689 2°47.144 13.3897 3.890029 31.166776 -2.871232
2007-05-09 11:47:56 51°14.688 2°47.118 13.3868 3.890133 31.164075 -2.871232
2007-05-09 11:48:01 51°14.686 2°47.087 13.398 3.890651 31.165798 -2.871232
2007-05-09 11:48:06 51°14.685 2°47.055 13.399 3.890651 31.165798 -2.871232
2007-05-09 11:48:12 51°14.683 2°47.018 13.4009 3.891273 31.172795 -2.871232
2007-05-09 11:48:17 51°14.681 2°46.986 13.4037 3.89148 31.173919 -2.871232
2007-05-09 11:48:21 51°14.68 2°46.961 13.4087 3.891377 31.16792 -2.871232
2007-05-09 11:48:26 51°14.678 2°46.93 13.4165 3.89148 31.162322 -2.871232
2007-05-09 11:48:32 51°14.677 2°46.892 13.4219 3.891791 31.160023 -2.871232
2007-05-09 11:48:37 51°14.675 2°46.86 13.4188 3.891791 31.160023 -2.871232
2007-05-09 11:48:41 51°14.674 2°46.835 13.4196 3.89262 31.164517 -2.871232
2007-05-09 11:48:46 51°14.672 2°46.804 13.4155 3.893657 31.170134 -2.871232
2007-05-09 11:48:52 51°14.67 2°46.766 13.4166 3.894693 31.17575 -2.871232
2007-05-09 11:48:56 51°14.669 2°46.741 13.4243 3.896144 31.185061 -2.871232
2007-05-09 11:49:02 51°14.668 2°46.703 13.4171 3.897077 31.187577 -2.871232
2007-05-09 11:49:06 51°14.666 2°46.678 13.4173 3.897077 31.187577 -2.871232
2007-05-09 11:49:12 51°14.665 2°46.64 13.3962 3.898321 31.195038 -2.871232
2007-05-09 11:49:16 51°14.664 2°46.615 13.392 3.899461 31.204472 -2.871232
2007-05-09 11:49:22 51°14.662 2°46.578 13.3884 3.900187 31.211663 -2.871232
2007-05-09 11:49:26 51°14.661 2°46.552 13.3823 3.900705 31.214831 -2.871232
2007-05-09 11:49:32 51°14.66 2°46.515 13.3853 3.90112 31.2178 -2.871232
2007-05-09 11:49:37 51°14.658 2°46.484 13.3702 3.90112 31.2178 -2.871232
2007-05-09 11:49:41 51°14.657 2°46.458 13.3715 3.901638 31.223869 -2.871232
2007-05-09 11:49:47 51°14.655 2°46.421 13.3794 3.902571 31.239438 -2.871232
2007-05-09 11:49:52 51°14.654 2°46.39 13.3714 3.903089 31.251319 -2.871232
2007-05-09 11:49:56 51°14.653 2°46.365 13.3773 3.903504 31.260102 -2.871232
2007-05-09 11:50:01 51°14.651 2°46.334 13.3697 3.903815 31.267235 -2.871232
2007-05-09 11:50:06 51°14.65 2°46.303 13.367 3.903815 31.267235 -2.871232
2007-05-09 11:50:12 51°14.647 2°46.266 13.3545 3.904437 31.2786 -2.871232
2007-05-09 11:50:17 51°14.646 2°46.235 13.3431 3.904748 31.283556 -2.871232
2007-05-09 11:50:21 51°14.645 2°46.211 13.3232 3.904956 31.286133 -2.871232
2007-05-09 11:50:26 51°14.643 2°46.18 13.3047 3.905474 31.29294 -2.871232
2007-05-09 11:50:32 51°14.641 2°46.144 13.2813 3.906096 31.299946 -2.871232
2007-05-09 11:50:37 51°14.639 2°46.114 13.2495 3.906096 31.299946 -2.871232
2007-05-09 11:50:41 51°14.638 2°46.089 13.2307 3.906614 31.307483 -2.871232
2007-05-09 11:50:46 51°14.636 2°46.059 13.2142 3.90734 31.318329 -2.871232
2007-05-09 11:50:51 51°14.635 2°46.029 13.1901 3.90848 31.339444 -2.871232
2007-05-09 11:50:57 51°14.633 2°45.993 13.1867 3.909621 31.363494 -2.871232
2007-05-09 11:51:02 51°14.632 2°45.963 13.1554 3.910658 31.388835 -2.871232
2007-05-09 11:51:06 51°14.631 2°45.939 13.1642 3.910658 31.388835 -2.871232
2007-05-09 11:51:12 51°14.63 2°45.904 13.1377 3.911798 31.420989 -2.871232
2007-05-09 11:51:16 51°14.63 2°45.88 13.1423 3.912524 31.449479 -2.871232
2007-05-09 11:51:22 51°14.629 2°45.844 13.1226 3.912628 31.472438 -2.871232
2007-05-09 11:51:26 51°14.628 2°45.82 13.1178 3.912732 31.491016 -2.871232
2007-05-09 11:51:32 51°14.627 2°45.784 13.1168 3.913043 31.511474 -2.871232
2007-05-09 11:51:36 51°14.626 2°45.76 13.1145 3.913043 31.511474 -2.871232
2007-05-09 11:51:42 51°14.625 2°45.724 13.119 3.91294 31.527498 -2.871232
2007-05-09 11:51:47 51°14.623 2°45.694 13.1189 3.912733 31.538919 -2.871232
2007-05-09 11:51:52 51°14.622 2°45.664 13.1077 3.912526 31.547394 -2.871232
2007-05-09 11:51:56 51°14.621 2°45.64 13.0984 3.912319 31.555137 -2.871232
2007-05-09 11:52:01 51°14.619 2°45.61 13.0955 3.912111 31.558448 -2.871232
2007-05-09 11:52:07 51°14.617 2°45.573 13.1005 3.912111 31.558448 -2.871232
2007-05-09 11:52:12 51°14.615 2°45.543 13.0902 3.911904 31.5625 -2.871232
2007-05-09 11:52:16 51°14.614 2°45.518 13.0993 3.911593 31.561924 -2.871232
2007-05-09 11:52:21 51°14.612 2°45.488 13.1098 3.911386 31.56154 -2.871232
2007-05-09 11:52:26 51°14.61 2°45.457 13.0936 3.91149 31.568389 -2.871232
2007-05-09 11:52:32 51°14.607 2°45.42 13.0913 3.91149 31.574309 -2.871232
2007-05-09 11:52:37 51°14.604 2°45.389 13.0949 3.91149 31.574309 -2.871232
2007-05-09 11:52:41 51°14.601 2°45.364 13.0938 3.911179 31.574474 -2.871232
2007-05-09 11:52:46 51°14.598 2°45.333 13.0989 3.910971 31.57483 -2.871232
2007-05-09 11:52:51 51°14.594 2°45.303 13.1006 3.910764 31.572966 -2.871232
2007-05-09 11:52:57 51°14.589 2°45.266 13.0944 3.910557 31.571102 -2.871232
2007-05-09 11:53:01 51°14.586 2°45.241 13.1047 3.910661 31.574995 -2.871232
2007-05-09 11:53:06 51°14.582 2°45.211 13.0996 3.910661 31.574995 -2.871232
2007-05-09 11:53:12 51°14.576 2°45.174 13.1049 3.910453 31.575352 -2.871232
2007-05-09 11:53:17 51°14.573 2°45.143 13.1042 3.910453 31.576093 -2.871232
2007-05-09 11:53:22 51°14.568 2°45.113 13.1158 3.910246 31.572007 -2.871232
2007-05-09 11:53:26 51°14.565 2°45.089 13.0952 3.910246 31.571267 -2.871232
2007-05-09 11:53:32 51°14.56 2°45.052 13.1073 3.909935 31.56773 -2.871232
2007-05-09 11:53:36 51°14.557 2°45.027 13.1034 3.909935 31.56773 -2.871232
2007-05-09 11:53:42 51°14.552 2°44.991 13.1031 3.909935 31.56699 -2.871232
2007-05-09 11:53:46 51°14.549 2°44.966 13.0953 3.909831 31.563838 -2.871232
2007-05-09 11:53:52 51°14.544 2°44.93 13.0962 3.909728 31.561426 -2.871232
2007-05-09 11:53:56 51°14.541 2°44.905 13.1 3.90952 31.558082 -2.871232
2007-05-09 11:54:01 51°14.537 2°44.875 13.0994 3.909624 31.561234 -2.871232
2007-05-09 11:54:07 51°14.532 2°44.838 13.0952 3.909624 31.561234 -2.871232
2007-05-09 11:54:12 51°14.527 2°44.808 13.09 3.90952 31.560302 -2.871232
2007-05-09 11:54:16 51°14.524 2°44.783 13.0811 3.909313 31.559178 -2.871232
2007-05-09 11:54:21 51°14.519 2°44.753 13.0851 3.909209 31.560465 -2.871232
2007-05-09 11:54:27 51°14.512 2°44.717 13.0907 3.908898 31.558409 -2.871232
2007-05-09 11:54:32 51°14.507 2°44.687 13.0886 3.908795 31.558217 -2.871232
2007-05-09 11:54:37 51°14.501 2°44.657 13.0851 3.908795 31.558217 -2.871232
2007-05-09 11:54:41 51°14.496 2°44.633 13.0851 3.908587 31.557833 -2.871232
2007-05-09 11:54:46 51°14.491 2°44.603 13.0828 3.90838 31.559669 -2.871232
2007-05-09 11:54:52 51°14.484 2°44.568 13.0894 3.908173 31.561505 -2.871232
2007-05-09 11:54:57 51°14.478 2°44.538 13.0858 3.907758 31.557776 -2.871232
2007-05-09 11:55:01 51°14.474 2°44.514 13.0871 3.907344 31.553307 -2.871232
2007-05-09 11:55:06 51°14.468 2°44.484 13.0845 3.907344 31.553307 -2.871232
2007-05-09 11:55:11 51°14.463 2°44.454 13.0793 3.90724 31.553114 -2.871232
2007-05-09 11:55:17 51°14.455 2°44.418 13.0822 3.907033 31.55273 -2.871232
2007-05-09 11:55:22 51°14.449 2°44.388 13.0786 3.906825 31.550865 -2.871232
2007-05-09 11:55:26 51°14.444 2°44.365 13.0789 3.906514 31.548068 -2.871232
2007-05-09 11:55:32 51°14.434 2°44.331 13.075 3.906411 31.547136 -2.871232
2007-05-09 11:55:37 51°14.426 2°44.303 13.0811 3.906411 31.547136 -2.871232
2007-05-09 11:55:42 51°14.417 2°44.275 13.0814 3.906203 31.545271 -2.871232
2007-05-09 11:55:46 51°14.41 2°44.253 13.0784 3.905892 31.545434 -2.871232
2007-05-09 11:55:52 51°14.399 2°44.22 13.0825 3.905581 31.544117 -2.871232
2007-05-09 11:55:56 51°14.391 2°44.198 13.0724 3.905167 31.541127 -2.871232
2007-05-09 11:56:02 51°14.379 2°44.166 13.0759 3.90496 31.541482 -2.871232
2007-05-09 11:56:07 51°14.37 2°44.138 13.0662 3.90496 31.541482 -2.871232
2007-05-09 11:56:12 51°14.36 2°44.112 13.0634 3.904752 31.540357 -2.871232
2007-05-09 11:56:16 51°14.352 2°44.09 13.0606 3.904649 31.538685 -2.871232
2007-05-09 11:56:22 51°14.34 2°44.057 13.0527 3.904441 31.53608 -2.871232
2007-05-09 11:56:27 51°14.331 2°44.03 13.0521 3.904441 31.53682 -2.871232
2007-05-09 11:56:32 51°14.32 2°44.003 13.0468 3.904234 31.537175 -2.871232
2007-05-09 11:56:36 51°14.312 2°43.982 13.0454 3.904234 31.537175 -2.871232
2007-05-09 11:56:41 51°14.302 2°43.955 13.0449 3.90413 31.539202 -2.871232
2007-05-09 11:56:47 51°14.29 2°43.923 13.0452 3.903819 31.539365 -2.871232
2007-05-09 11:56:52 51°14.279 2°43.897 13.0439 3.903509 31.540268 -2.871232
2007-05-09 11:56:57 51°14.269 2°43.87 13.0468 3.903198 31.541171 -2.871232
2007-05-09 11:57:01 51°14.26 2°43.849 13.0516 3.902887 31.542815 -2.871232
2007-05-09 11:57:06 51°14.249 2°43.823 13.0424 3.902887 31.542815 -2.871232
2007-05-09 11:57:11 51°14.238 2°43.797 13.0429 3.902576 31.542238 -2.871232
2007-05-09 11:57:17 51°14.224 2°43.767 13.0367 3.902576 31.54446 -2.871232
2007-05-09 11:57:21 51°14.215 2°43.747 13.0391 3.902472 31.545749 -2.871232
2007-05-09 11:57:26 51°14.204 2°43.722 13.0395 3.902265 31.543142 -2.871232
2007-05-09 11:57:32 51°14.19 2°43.692 13.0406 3.902369 31.544816 -2.871232
2007-05-09 11:57:37 51°14.178 2°43.666 13.0436 3.902369 31.544816 -2.871232
2007-05-09 11:57:42 51°14.166 2°43.641 13.046 3.902472 31.547231 -2.871232
2007-05-09 11:57:46 51°14.157 2°43.62 13.0409 3.902369 31.547779 -2.871232
2007-05-09 11:57:52 51°14.143 2°43.59 13.0485 3.902472 31.550194 -2.871232
2007-05-09 11:57:56 51°14.134 2°43.57 13.0467 3.902576 31.551128 -2.871232
2007-05-09 11:58:01 51°14.122 2°43.545 13.0444 3.902576 31.551128 -2.871232
2007-05-09 11:58:06 51°14.111 2°43.519 13.0546 3.902576 31.551128 -2.871232
2007-05-09 11:58:12 51°14.097 2°43.488 13.0489 3.902783 31.552253 -2.871232
2007-05-09 11:58:16 51°14.088 2°43.468 13.0488 3.902783 31.552994 -2.871232
2007-05-09 11:58:22 51°14.074 2°43.437 13.0529 3.902887 31.553928 -2.871232
2007-05-09 11:58:27 51°14.063 2°43.412 13.0489 3.902161 31.546654 -2.871232
2007-05-09 11:58:32 51°14.051 2°43.386 13.0455 3.90268 31.550579 -2.871232
2007-05-09 11:58:36 51°14.042 2°43.365 13.0456 3.90268 31.550579 -2.871232
2007-05-09 11:58:41 51°14.031 2°43.34 13.0509 3.902369 31.544816 -2.871232
2007-05-09 11:58:47 51°14.017 2°43.309 13.0427 3.903094 31.549125 -2.871232
2007-05-09 11:58:52 51°14.005 2°43.284 13.048 3.90299 31.548192 -2.871232
2007-05-09 11:58:57 51°13.994 2°43.258 13.044 3.903612 31.553791 -2.871232
2007-05-09 11:59:01 51°13.984 2°43.238 13.0487 3.903716 31.556947 -2.871232
2007-05-09 11:59:06 51°13.973 2°43.212 13.0566 3.903716 31.556947 -2.871232
2007-05-09 11:59:12 51°13.959 2°43.182 13.0629 3.903923 31.559555 -2.871232
2007-05-09 11:59:17 51°13.948 2°43.155 13.0536 3.904027 31.560488 -2.871232
2007-05-09 11:59:21 51°13.939 2°43.135 13.0581 3.904234 31.563837 -2.871232
2007-05-09 11:59:26 51°13.927 2°43.109 13.0529 3.904442 31.564221 -2.871232
2007-05-09 11:59:32 51°13.914 2°43.078 13.0629 3.904649 31.565347 -2.871232
2007-05-09 11:59:37 51°13.902 2°43.053 13.053 3.904649 31.565347 -2.871232
2007-05-09 11:59:42 51°13.891 2°43.027 13.055 3.904649 31.562382 -2.871232
2007-05-09 11:59:46 51°13.881 2°43.007 13.0622 3.90496 31.562958 -2.871232
2007-05-09 11:59:52 51°13.868 2°42.976 13.0536 3.905271 31.565757 -2.871232
2007-05-09 11:59:57 51°13.856 2°42.95 13.0536 3.905478 31.566882 -2.871232
2007-05-09 12:00:01 51°13.847 2°42.929 13.0527 3.905789 31.568941 -2.871232
2007-05-09 12:00:06 51°13.836 2°42.904 13.0458 3.905789 31.568941 -2.871232
2007-05-09 12:00:12 51°13.822 2°42.873 13.0465 3.9061 31.572481 -2.871232
2007-05-09 12:00:16 51°13.813 2°42.852 13.0438 3.906204 31.572673 -2.871232
2007-05-09 12:00:22 51°13.799 2°42.821 13.0485 3.906204 31.572673 -2.871232
2007-05-09 12:00:27 51°13.788 2°42.795 13.0428 3.906307 31.574348 -2.871232
2007-05-09 12:00:32 51°13.776 2°42.77 13.0399 3.906515 31.578438 -2.871232
2007-05-09 12:00:36 51°13.767 2°42.749 13.0338 3.906515 31.578438 -2.871232
2007-05-09 12:00:42 51°13.753 2°42.718 13.0399 3.906619 31.581596 -2.871232
2007-05-09 12:00:47 51°13.741 2°42.692 13.0356 3.906411 31.581954 -2.871232
2007-05-09 12:00:52 51°13.73 2°42.666 13.0411 3.906619 31.584563 -2.871232
2007-05-09 12:00:56 51°13.721 2°42.646 13.0447 3.906722 31.58698 -2.871232
2007-05-09 12:01:01 51°13.71 2°42.62 13.0503 3.90693 31.591072 -2.871232
2007-05-09 12:01:07 51°13.696 2°42.589 13.0547 3.90693 31.591072 -2.871232
2007-05-09 12:01:12 51°13.685 2°42.563 13.0504 3.907137 31.595166 -2.871232
2007-05-09 12:01:17 51°13.673 2°42.537 13.0466 3.907344 31.597033 -2.871232
2007-05-09 12:01:21 51°13.664 2°42.516 13.0548 3.907759 31.60151 -2.871232
2007-05-09 12:01:26 51°13.653 2°42.491 13.0623 3.908277 31.606178 -2.871232
2007-05-09 12:01:32 51°13.639 2°42.46 13.0591 3.908795 31.607134 -2.871232
2007-05-09 12:01:37 51°13.628 2°42.434 13.0589 3.908795 31.607134 -2.871232
2007-05-09 12:01:42 51°13.616 2°42.408 13.0555 3.909314 31.60809 -2.871232
2007-05-09 12:01:46 51°13.607 2°42.388 13.0587 3.910143 31.614815 -2.871232
2007-05-09 12:01:52 51°13.593 2°42.357 13.0536 3.910869 31.62135 -2.871232
2007-05-09 12:01:57 51°13.582 2°42.331 13.0581 3.91149 31.62398 -2.871232
2007-05-09 12:02:01 51°13.573 2°42.311 13.0546 3.912112 31.625868 -2.871232
2007-05-09 12:02:06 51°13.562 2°42.285 13.0534 3.912112 31.625868 -2.871232
2007-05-09 12:02:12 51°13.548 2°42.254 13.0513 3.912942 31.632592 -2.871232
2007-05-09 12:02:17 51°13.537 2°42.228 13.0495 3.91346 31.637259 -2.871232
2007-05-09 12:02:21 51°13.528 2°42.207 13.0464 3.913667 31.639869 -2.871232
2007-05-09 12:02:27 51°13.514 2°42.176 13.053 3.914082 31.644345 -2.871232
2007-05-09 12:02:32 51°13.503 2°42.15 13.0584 3.914393 31.647146 -2.871232
2007-05-09 12:02:37 51°13.491 2°42.124 13.0532 3.914393 31.647146 -2.871232
2007-05-09 12:02:42 51°13.48 2°42.099 13.0516 3.914911 31.6533 -2.871232
2007-05-09 12:02:47 51°13.468 2°42.073 13.0594 3.915015 31.654977 -2.871232
2007-05-09 12:02:52 51°13.457 2°42.047 13.0507 3.915326 31.659264 -2.871232
2007-05-09 12:02:56 51°13.448 2°42.027 13.0499 3.915637 31.662809 -2.871232
2007-05-09 12:03:02 51°13.434 2°41.995 13.0511 3.915637 31.661321 -2.871232
2007-05-09 12:03:06 51°13.425 2°41.974 13.0465 3.915637 31.661321 -2.871232
2007-05-09 12:03:12 51°13.411 2°41.943 13.0429 3.915844 31.662445 -2.871232
2007-05-09 12:03:17 51°13.4 2°41.917 13.0465 3.916155 31.665246 -2.871232
2007-05-09 12:03:21 51°13.391 2°41.897 13.0466 3.916362 31.667113 -2.871232
2007-05-09 12:03:27 51°13.377 2°41.865 13.0512 3.916673 31.670658 -2.871232
2007-05-09 12:03:32 51°13.366 2°41.839 13.0506 3.916984 31.674946 -2.871232
2007-05-09 12:03:37 51°13.355 2°41.813 13.0568 3.916984 31.674946 -2.871232
2007-05-09 12:03:41 51°13.346 2°41.792 13.0542 3.917295 31.679235 -2.871232
2007-05-09 12:03:47 51°13.332 2°41.761 13.0528 3.917606 31.683525 -2.871232
2007-05-09 12:03:52 51°13.32 2°41.735 13.0524 3.918021 31.68726 -2.871232
2007-05-09 12:03:57 51°13.309 2°41.709 13.0575 3.918332 31.690062 -2.871232
2007-05-09 12:04:01 51°13.3 2°41.688 13.06 3.918539 31.690441 -2.871232
2007-05-09 12:04:06 51°13.288 2°41.663 13.0591 3.918539 31.690441 -2.871232
2007-05-09 12:04:12 51°13.275 2°41.631 13.0639 3.919058 31.692877 -2.871232
2007-05-09 12:04:17 51°13.263 2°41.606 13.0729 3.91968 31.69848 -2.871232
2007-05-09 12:04:21 51°13.254 2°41.585 13.0694 3.920094 31.700726 -2.871232
2007-05-09 12:04:26 51°13.243 2°41.559 13.0706 3.920613 31.705395 -2.871232
2007-05-09 12:04:32 51°13.229 2°41.528 13.0723 3.921234 31.708764 -2.871232
2007-05-09 12:04:37 51°13.218 2°41.502 13.0823 3.921234 31.708764 -2.871232
2007-05-09 12:04:42 51°13.206 2°41.477 13.0864 3.921856 31.712133 -2.871232
2007-05-09 12:04:47 51°13.195 2°41.451 13.0845 3.922686 31.717369 -2.871232
2007-05-09 12:04:52 51°13.184 2°41.425 13.0874 3.923515 31.721115 -2.871232
2007-05-09 12:04:56 51°13.175 2°41.404 13.0827 3.924344 31.72635 -2.871232
2007-05-09 12:05:02 51°13.161 2°41.373 13.0942 3.92507 31.731395 -2.871232
2007-05-09 12:05:06 51°13.152 2°41.352 13.0864 3.92507 31.731395 -2.871232
2007-05-09 12:05:12 51°13.139 2°41.321 13.0866 3.925795 31.734206 -2.871232
2007-05-09 12:05:17 51°13.127 2°41.296 13.0785 3.926625 31.73795 -2.871232
2007-05-09 12:05:21 51°13.118 2°41.275 13.0823 3.927454 31.742437 -2.871232
2007-05-09 12:05:27 51°13.104 2°41.244 13.0814 3.928594 31.751214 -2.871232
2007-05-09 12:05:32 51°13.093 2°41.218 13.0717 3.92932 31.757003 -2.871232
2007-05-09 12:05:37 51°13.082 2°41.193 13.081 3.92932 31.757003 -2.871232
2007-05-09 12:05:41 51°13.073 2°41.172 13.0722 3.930149 31.763724 -2.871232
2007-05-09 12:05:47 51°13.059 2°41.141 13.0744 3.930771 31.769325 -2.871232
2007-05-09 12:05:52 51°13.048 2°41.115 13.0774 3.931497 31.778841 -2.871232
2007-05-09 12:05:56 51°13.04 2°41.094 13.074 3.931704 31.780708 -2.871232
2007-05-09 12:06:01 51°13.028 2°41.069 13.0674 3.93243 31.78948 -2.871232
2007-05-09 12:06:06 51°13.017 2°41.043 13.0658 3.93243 31.78948 -2.871232
2007-05-09 12:06:12 51°13.003 2°41.012 13.0651 3.932741 31.793027 -2.871232
2007-05-09 12:06:17 51°12.992 2°40.986 13.064 3.933363 31.800121 -2.871232
2007-05-09 12:06:21 51°12.983 2°40.966 13.0685 3.933985 31.807216 -2.871232
2007-05-09 12:06:26 51°12.972 2°40.94 13.0652 3.934296 31.810018 -2.871232
2007-05-09 12:06:32 51°12.958 2°40.909 13.0673 3.934814 31.81618 -2.871232
2007-05-09 12:06:37 51°12.947 2°40.883 13.0652 3.934814 31.81618 -2.871232
2007-05-09 12:06:42 51°12.935 2°40.858 13.0635 3.935125 31.821222 -2.871232
2007-05-09 12:06:47 51°12.924 2°40.832 13.0607 3.935436 31.827012 -2.871232
2007-05-09 12:06:52 51°12.913 2°40.806 13.0659 3.935747 31.831309 -2.871232
2007-05-09 12:06:57 51°12.902 2°40.781 13.0599 3.935851 31.831495 -2.871232
2007-05-09 12:07:02 51°12.89 2°40.755 13.0627 3.936162 31.83355 -2.871232
2007-05-09 12:07:06 51°12.882 2°40.734 13.0615 3.936162 31.83355 -2.871232
2007-05-09 12:07:12 51°12.868 2°40.704 13.0562 3.936473 31.8371 -2.871232
2007-05-09 12:07:16 51°12.859 2°40.683 13.063 3.936887 31.841584 -2.871232
2007-05-09 12:07:22 51°12.846 2°40.652 13.0615 3.937198 31.846629 -2.871232
2007-05-09 12:07:27 51°12.834 2°40.626 13.0662 3.937613 31.850366 -2.871232
2007-05-09 12:07:32 51°12.824 2°40.6 13.0531 3.937717 31.852048 -2.871232
2007-05-09 12:07:37 51°12.812 2°40.575 13.0528 3.937717 31.852048 -2.871232
2007-05-09 12:07:41 51°12.803 2°40.554 13.0452 3.938028 31.855599 -2.871232
2007-05-09 12:07:46 51°12.792 2°40.528 13.0537 3.938235 31.858215 -2.871232
2007-05-09 12:07:51 51°12.781 2°40.503 13.0482 3.938235 31.858215 -2.871232
2007-05-09 12:07:56 51°12.77 2°40.477 13.0438 3.938339 31.858402 -2.871232
2007-05-09 12:08:02 51°12.757 2°40.446 13.0402 3.938339 31.860646 -2.871232
2007-05-09 12:08:07 51°12.746 2°40.421 13.0423 3.938339 31.860646 -2.871232
2007-05-09 12:08:12 51°12.735 2°40.395 13.0434 3.938443 31.864573 -2.871232
2007-05-09 12:08:17 51°12.723 2°40.37 13.045 3.93865 31.870932 -2.871232
2007-05-09 12:08:21 51°12.715 2°40.349 13.0383 3.938339 31.868129 -2.871232
2007-05-09 12:08:26 51°12.704 2°40.324 13.0406 3.938339 31.870374 -2.871232
2007-05-09 12:08:31 51°12.692 2°40.298 13.0396 3.938339 31.871871 -2.871232
2007-05-09 12:08:37 51°12.679 2°40.268 13.0414 3.938339 31.871871 -2.871232
2007-05-09 12:08:41 51°12.67 2°40.248 13.0431 3.938339 31.873369 -2.871232
2007-05-09 12:08:46 51°12.658 2°40.222 13.0373 3.938443 31.875052 -2.871232
2007-05-09 12:08:51 51°12.647 2°40.197 13.0389 3.938546 31.875987 -2.871232
2007-05-09 12:08:57 51°12.634 2°40.167 13.0338 3.93865 31.879169 -2.871232
2007-05-09 12:09:01 51°12.625 2°40.146 13.0393 3.938546 31.878234 -2.871232
2007-05-09 12:09:06 51°12.614 2°40.12 13.0405 3.938546 31.878234 -2.871232
2007-05-09 12:09:11 51°12.602 2°40.095 13.0399 3.938443 31.877299 -2.871232
2007-05-09 12:09:16 51°12.592 2°40.068 13.037 3.938339 31.876364 -2.871232
2007-05-09 12:09:22 51°12.578 2°40.038 13.0384 3.938443 31.878797 -2.871232
2007-05-09 12:09:26 51°12.569 2°40.017 13.0363 3.938547 31.881979 -2.871232
2007-05-09 12:09:31 51°12.558 2°39.991 13.0395 3.938443 31.881044 -2.871232
2007-05-09 12:09:36 51°12.547 2°39.965 13.0396 3.938443 31.881044 -2.871232
2007-05-09 12:09:41 51°12.536 2°39.939 13.0434 3.938546 31.88123 -2.871232
2007-05-09 12:09:46 51°12.525 2°39.914 13.0508 3.938754 31.881601 -2.871232
2007-05-09 12:09:51 51°12.514 2°39.888 13.0574 3.938961 31.88422 -2.871232
2007-05-09 12:09:56 51°12.503 2°39.863 13.0566 3.939168 31.886839 -2.871232
2007-05-09 12:10:01 51°12.491 2°39.837 13.0521 3.939168 31.886839 -2.871232
2007-05-09 12:10:06 51°12.48 2°39.812 13.0453 3.939168 31.886839 -2.871232
2007-05-09 12:10:11 51°12.469 2°39.786 13.0444 3.939376 31.886462 -2.871232
2007-05-09 12:10:16 51°12.458 2°39.76 13.0501 3.939583 31.886833 -2.871232
2007-05-09 12:10:21 51°12.447 2°39.734 13.0489 3.939687 31.884772 -2.871232
2007-05-09 12:10:26 51°12.435 2°39.708 13.0437 3.93979 31.882711 -2.871232
2007-05-09 12:10:31 51°12.424 2°39.683 13.047 3.940205 31.884952 -2.871232
2007-05-09 12:10:37 51°12.411 2°39.652 13.0483 3.940205 31.884952 -2.871232
2007-05-09 12:10:41 51°12.402 2°39.631 13.044 3.940516 31.890003 -2.871232
2007-05-09 12:10:46 51°12.391 2°39.606 13.0379 3.94062 31.891687 -2.871232
2007-05-09 12:10:51 51°12.379 2°39.58 13.0364 3.94062 31.891687 -2.871232
2007-05-09 12:10:57 51°12.366 2°39.549 13.0412 3.940516 31.890752 -2.871232
2007-05-09 12:11:01 51°12.357 2°39.529 13.0376 3.940516 31.890752 -2.871232
2007-05-09 12:11:06 51°12.346 2°39.503 13.0354 3.940516 31.890752 -2.871232
2007-05-09 12:11:11 51°12.334 2°39.477 13.0385 3.940309 31.888134 -2.871232
2007-05-09 12:11:16 51°12.323 2°39.451 13.0328 3.940309 31.890381 -2.871232
2007-05-09 12:11:22 51°12.31 2°39.42 13.0339 3.940101 31.891508 -2.871232
2007-05-09 12:11:26 51°12.301 2°39.4 13.0265 3.93979 31.890201 -2.871232
2007-05-09 12:11:31 51°12.29 2°39.374 13.0281 3.939479 31.887397 -2.871232
2007-05-09 12:11:36 51°12.279 2°39.348 13.0242 3.939479 31.887397 -2.871232
2007-05-09 12:11:41 51°12.267 2°39.322 13.0235 3.939168 31.88609 -2.871232
2007-05-09 12:11:46 51°12.256 2°39.296 13.0184 3.938961 31.886468 -2.871232
2007-05-09 12:11:51 51°12.245 2°39.271 13.023 3.93865 31.885161 -2.871232
2007-05-09 12:11:56 51°12.234 2°39.245 13.0191 3.938443 31.88404 -2.871232
2007-05-09 12:12:01 51°12.222 2°39.219 13.0188 3.938339 31.884604 -2.871232
2007-05-09 12:12:06 51°12.211 2°39.193 13.0199 3.938339 31.884604 -2.871232
2007-05-09 12:12:11 51°12.2 2°39.168 13.0197 3.938028 31.884046 -2.871232
2007-05-09 12:12:16 51°12.189 2°39.142 13.0124 3.937821 31.884424 -2.871232
2007-05-09 12:12:21 51°12.177 2°39.117 13.0084 3.937717 31.886487 -2.871232
2007-05-09 12:12:26 51°12.166 2°39.091 13.0088 3.937717 31.887236 -2.871232
2007-05-09 12:12:31 51°12.155 2°39.065 13.0067 3.93751 31.886865 -2.871232
2007-05-09 12:12:36 51°12.144 2°39.039 13.0066 3.93751 31.886865 -2.871232
2007-05-09 12:12:41 51°12.132 2°39.014 13.0097 3.93751 31.888364 -2.871232
2007-05-09 12:12:46 51°12.121 2°38.988 13.0131 3.93751 31.888364 -2.871232
2007-05-09 12:12:51 51°12.11 2°38.962 13.0117 3.93751 31.890613 -2.871232
2007-05-09 12:12:57 51°12.096 2°38.932 13.0123 3.93751 31.893612 -2.871232
2007-05-09 12:13:01 51°12.087 2°38.911 13.0043 3.937407 31.894926 -2.871232
2007-05-09 12:13:06 51°12.076 2°38.885 13.0029 3.937407 31.894926 -2.871232
2007-05-09 12:13:11 51°12.065 2°38.859 13.0056 3.93751 31.897362 -2.871232
2007-05-09 12:13:17 51°12.051 2°38.829 13.0146 3.937407 31.896427 -2.871232
2007-05-09 12:13:21 51°12.042 2°38.808 13.006 3.93751 31.895862 -2.871232
2007-05-09 12:13:26 51°12.031 2°38.782 13.009 3.937614 31.896798 -2.871232
2007-05-09 12:13:31 51°12.019 2°38.757 13.006 3.937821 31.899419 -2.871232
2007-05-09 12:13:37 51°12.006 2°38.725 13.0081 3.937821 31.899419 -2.871232
2007-05-09 12:13:41 51°11.997 2°38.705 13.0065 3.937925 31.902605 -2.871232
2007-05-09 12:13:46 51°11.986 2°38.679 13.0084 3.937925 31.901855 -2.871232
2007-05-09 12:13:51 51°11.974 2°38.653 13.0125 3.937925 31.901105 -2.871232
2007-05-09 12:13:56 51°11.963 2°38.627 13.0064 3.938236 31.906163 -2.871232
2007-05-09 12:14:01 51°11.952 2°38.601 13.0031 3.938443 31.907284 -2.871232
2007-05-09 12:14:06 51°11.941 2°38.576 13.008 3.938443 31.907284 -2.871232
2007-05-09 12:14:11 51°11.929 2°38.55 13.014 3.938547 31.90822 -2.871232
2007-05-09 12:14:16 51°11.918 2°38.524 13.0084 3.938858 31.911777 -2.871232
2007-05-09 12:14:21 51°11.907 2°38.498 13.0115 3.938858 31.910277 -2.871232
2007-05-09 12:14:26 51°11.896 2°38.472 13.0149 3.939169 31.913084 -2.871232
2007-05-09 12:14:31 51°11.885 2°38.446 13.0077 3.939584 31.918328 -2.871232
2007-05-09 12:14:36 51°11.873 2°38.42 13.0125 3.939584 31.918328 -2.871232
2007-05-09 12:14:41 51°11.862 2°38.394 13.0063 3.939895 31.921135 -2.871232
2007-05-09 12:14:46 51°11.851 2°38.369 13.0063 3.940102 31.920755 -2.871232
2007-05-09 12:14:51 51°11.84 2°38.342 13.0006 3.940309 31.921876 -2.871232
2007-05-09 12:14:57 51°11.826 2°38.312 13.0036 3.940517 31.922246 -2.871232
2007-05-09 12:15:01 51°11.817 2°38.291 12.9984 3.940724 31.924868 -2.871232
2007-05-09 12:15:06 51°11.806 2°38.265 13.004 3.940724 31.924868 -2.871232
2007-05-09 12:15:11 51°11.795 2°38.239 13.0021 3.941035 31.928426 -2.871232
2007-05-09 12:15:17 51°11.781 2°38.208 12.9942 3.941346 31.933486 -2.871232
2007-05-09 12:15:21 51°11.773 2°38.187 12.9943 3.94145 31.935924 -2.871232
2007-05-09 12:15:26 51°11.761 2°38.162 12.9912 3.941553 31.939114 -2.871232
2007-05-09 12:15:31 51°11.75 2°38.136 12.9931 3.941657 31.941552 -2.871232
2007-05-09 12:15:37 51°11.737 2°38.105 12.9945 3.941657 31.941552 -2.871232
2007-05-09 12:15:41 51°11.727 2°38.084 12.9869 3.941553 31.940616 -2.871232
2007-05-09 12:15:46 51°11.716 2°38.058 12.9836 3.941761 31.941737 -2.871232
2007-05-09 12:15:51 51°11.705 2°38.033 12.9832 3.941864 31.945679 -2.871232
2007-05-09 12:15:56 51°11.694 2°38.007 12.9751 3.941864 31.947933 -2.871232
2007-05-09 12:16:01 51°11.683 2°37.981 12.9745 3.941761 31.9485 -2.871232
2007-05-09 12:16:06 51°11.671 2°37.955 12.9782 3.941761 31.9485 -2.871232
2007-05-09 12:16:11 51°11.66 2°37.93 12.9663 3.941761 31.949252 -2.871232
2007-05-09 12:16:16 51°11.649 2°37.904 12.9738 3.941657 31.950571 -2.871232
2007-05-09 12:16:21 51°11.637 2°37.878 12.9701 3.941657 31.953578 -2.871232
2007-05-09 12:16:26 51°11.625 2°37.853 12.9697 3.941657 31.957338 -2.871232
2007-05-09 12:16:31 51°11.614 2°37.828 12.9639 3.941554 31.960162 -2.871232
2007-05-09 12:16:36 51°11.601 2°37.803 12.961 3.941554 31.960162 -2.871232
2007-05-09 12:16:41 51°11.589 2°37.779 12.9554 3.941243 31.958857 -2.871232
2007-05-09 12:16:46 51°11.577 2°37.754 12.9618 3.941243 31.961866 -2.871232
2007-05-09 12:16:51 51°11.565 2°37.729 12.952 3.940932 31.959808 -2.871232
2007-05-09 12:16:56 51°11.553 2°37.705 12.9572 3.940932 31.960561 -2.871232
2007-05-09 12:17:01 51°11.54 2°37.68 12.9495 3.940932 31.963571 -2.871232
2007-05-09 12:17:06 51°11.528 2°37.656 12.9544 3.940932 31.963571 -2.871232
2007-05-09 12:17:11 51°11.516 2°37.632 12.9507 3.940828 31.966397 -2.871232
2007-05-09 12:17:17 51°11.501 2°37.603 12.9539 3.940725 31.967718 -2.871232
2007-05-09 12:17:21 51°11.49 2°37.584 12.9472 3.940414 31.966413 -2.871232
2007-05-09 12:17:26 51°11.478 2°37.56 12.9482 3.940414 31.968672 -2.871232
2007-05-09 12:17:31 51°11.464 2°37.537 12.9471 3.940414 31.97093 -2.871232
2007-05-09 12:17:37 51°11.448 2°37.509 12.9496 3.940414 31.97093 -2.871232
2007-05-09 12:17:41 51°11.438 2°37.49 12.9566 3.94031 31.971499 -2.871232
2007-05-09 12:17:46 51°11.424 2°37.467 12.9532 3.940517 31.974127 -2.871232
2007-05-09 12:17:51 51°11.411 2°37.443 12.9583 3.940621 31.975818 -2.871232
2007-05-09 12:17:57 51°11.395 2°37.415 12.9524 3.940725 31.978261 -2.871232
2007-05-09 12:18:01 51°11.385 2°37.396 12.9552 3.940828 31.980706 -2.871232
2007-05-09 12:18:06 51°11.372 2°37.373 12.9567 3.940828 31.980706 -2.871232
2007-05-09 12:18:11 51°11.359 2°37.349 12.9522 3.940932 31.981643 -2.871232
2007-05-09 12:18:16 51°11.345 2°37.326 12.9564 3.941036 31.979567 -2.871232
2007-05-09 12:18:21 51°11.332 2°37.303 12.9539 3.941243 31.979181 -2.871232
2007-05-09 12:18:26 51°11.319 2°37.279 12.9511 3.941658 31.982177 -2.871232
2007-05-09 12:18:31 51°11.305 2°37.258 12.9478 3.941865 31.984805 -2.871232
2007-05-09 12:18:36 51°11.291 2°37.236 12.945 3.941865 31.984805 -2.871232
2007-05-09 12:18:42 51°11.273 2°37.211 12.9496 3.941969 31.984989 -2.871232
2007-05-09 12:18:46 51°11.261 2°37.194 12.9442 3.941969 31.984989 -2.871232
2007-05-09 12:18:51 51°11.246 2°37.175 12.9412 3.941969 31.984989 -2.871232
2007-05-09 12:18:56 51°11.231 2°37.156 12.9415 3.941761 31.984621 -2.871232
2007-05-09 12:19:01 51°11.214 2°37.138 12.9395 3.941554 31.985007 -2.871232
2007-05-09 12:19:06 51°11.198 2°37.119 12.9357 3.941554 31.985007 -2.871232
2007-05-09 12:19:11 51°11.182 2°37.1 12.9314 3.941347 31.985392 -2.871232
2007-05-09 12:19:17 51°11.163 2°37.079 12.929 3.940932 31.982396 -2.871232
2007-05-09 12:19:21 51°11.15 2°37.065 12.9253 3.940621 31.981091 -2.871232
2007-05-09 12:19:26 51°11.134 2°37.047 12.9265 3.94031 31.981293 -2.871232
2007-05-09 12:19:31 51°11.118 2°37.03 12.9354 3.939999 31.979234 -2.871232
2007-05-09 12:19:37 51°11.098 2°37.009 12.9325 3.939999 31.979234 -2.871232
2007-05-09 12:19:41 51°11.085 2°36.994 12.9396 3.938444 31.967431 -2.871232
2007-05-09 12:19:46 51°11.069 2°36.977 12.9392 3.938755 31.972504 -2.871232
2007-05-09 12:19:51 51°11.053 2°36.959 12.9364 3.938963 31.977394 -2.871232
2007-05-09 12:19:57 51°11.034 2°36.938 12.9434 3.938652 31.976088 -2.871232
2007-05-09 12:20:01 51°11.021 2°36.924 12.9528 3.938444 31.974212 -2.871232
2007-05-09 12:20:06 51°11.005 2°36.906 12.9593 3.938444 31.974212 -2.871232
2007-05-09 12:20:11 51°10.989 2°36.889 12.961 3.938341 31.971767 -2.871232
2007-05-09 12:20:17 51°10.969 2°36.868 12.9645 3.938548 31.971382 -2.871232
2007-05-09 12:20:21 51°10.956 2°36.854 12.9756 3.93917 31.975501 -2.871232
2007-05-09 12:20:26 51°10.939 2°36.837 12.9785 3.939999 31.981494 -2.871232
2007-05-09 12:20:31 51°10.923 2°36.82 12.9859 3.941036 31.987102 -2.871232
2007-05-09 12:20:36 51°10.907 2°36.804 12.9926 3.941036 31.987102 -2.871232
2007-05-09 12:20:41 51°10.89 2°36.787 12.9941 3.942072 31.990447 -2.871232
2007-05-09 12:20:46 51°10.873 2°36.77 12.9994 3.942694 31.99155 -2.871232
2007-05-09 12:20:51 51°10.857 2°36.753 13.0049 3.943938 31.998275 -2.871232
2007-05-09 12:20:56 51°10.841 2°36.736 13.0105 3.945286 32.004429 -2.871232
2007-05-09 12:21:01 51°10.824 2°36.72 13.0109 3.946322 32.008525 -2.871232
2007-05-09 12:21:06 51°10.807 2°36.703 13.0145 3.946322 32.008525 -2.871232
2007-05-09 12:21:11 51°10.79 2°36.689 13.0193 3.947048 32.008302 -2.871232
2007-05-09 12:21:16 51°10.773 2°36.673 13.0165 3.948188 32.013332 -2.871232
2007-05-09 12:21:21 51°10.756 2°36.659 13.0263 3.948914 32.014615 -2.871232
2007-05-09 12:21:26 51°10.739 2°36.645 13.0221 3.949743 32.017588 -2.871232
2007-05-09 12:21:31 51°10.722 2°36.633 13.0225 3.950676 32.022249 -2.871232
2007-05-09 12:21:37 51°10.701 2°36.617 13.0237 3.950676 32.022249 -2.871232
2007-05-09 12:21:41 51°10.686 2°36.606 13.0306 3.951402 32.025038 -2.871232
2007-05-09 12:21:46 51°10.669 2°36.595 13.0274 3.952024 32.028396 -2.871232
2007-05-09 12:21:51 51°10.65 2°36.585 13.0323 3.952646 32.031 -2.871232
2007-05-09 12:21:56 51°10.632 2°36.575 13.0335 3.95306 32.031732 -2.871232
2007-05-09 12:22:01 51°10.614 2°36.567 13.0334 3.953682 32.036595 -2.871232
2007-05-09 12:22:06 51°10.596 2°36.559 13.0354 3.953682 32.036595 -2.871232
2007-05-09 12:22:11 51°10.577 2°36.552 13.0352 3.954097 32.038833 -2.871232
2007-05-09 12:22:17 51°10.555 2°36.546 13.0364 3.954304 32.038446 -2.871232
2007-05-09 12:22:21 51°10.54 2°36.542 13.0396 3.954719 32.040683 -2.871232
2007-05-09 12:22:26 51°10.521 2°36.538 13.0442 3.955133 32.042167 -2.871232
2007-05-09 12:22:31 51°10.502 2°36.536 13.0454 3.955444 32.042716 -2.871232
2007-05-09 12:22:37 51°10.479 2°36.532 13.0495 3.955444 32.042716 -2.871232
2007-05-09 12:22:41 51°10.463 2°36.531 13.0559 3.955859 32.044953 -2.871232
2007-05-09 12:22:46 51°10.444 2°36.528 13.0548 3.95617 32.047007 -2.871232
2007-05-09 12:22:51 51°10.425 2°36.528 13.0625 3.956481 32.049062 -2.871232
2007-05-09 12:22:56 51°10.407 2°36.525 13.062 3.956896 32.050545 -2.871232
2007-05-09 12:23:02 51°10.384 2°36.524 13.0663 3.957103 32.049404 -2.871232
2007-05-09 12:23:06 51°10.368 2°36.522 13.0659 3.957103 32.049404 -2.871232
2007-05-09 12:23:11 51°10.349 2°36.521 13.0742 3.957518 32.050135 -2.871232
2007-05-09 12:23:16 51°10.329 2°36.519 13.0683 3.957932 32.050112 -2.871232
2007-05-09 12:23:21 51°10.309 2°36.518 13.073 3.958243 32.049154 -2.871232
2007-05-09 12:23:26 51°10.289 2°36.515 13.0726 3.958554 32.048196 -2.871232
2007-05-09 12:23:31 51°10.27 2°36.513 13.0781 3.958761 32.047056 -2.871232
2007-05-09 12:23:37 51°10.247 2°36.511 13.0801 3.958761 32.047056 -2.871232
2007-05-09 12:23:41 51°10.231 2°36.51 13.079 3.959072 32.047604 -2.871232
2007-05-09 12:23:46 51°10.212 2°36.509 13.0819 3.95928 32.046464 -2.871232
2007-05-09 12:23:51 51°10.192 2°36.509 13.0866 3.959487 32.046077 -2.871232
2007-05-09 12:23:56 51°10.173 2°36.508 13.0912 3.959487 32.04382 -2.871232
2007-05-09 12:24:01 51°10.154 2°36.509 13.0908 3.959591 32.043251 -2.871232
2007-05-09 12:24:06 51°10.135 2°36.509 13.0965 3.959591 32.043251 -2.871232
2007-05-09 12:24:11 51°10.116 2°36.509 13.0961 3.959591 32.040994 -2.871232
2007-05-09 12:24:17 51°10.093 2°36.509 13.1006 3.959694 32.040425 -2.871232
2007-05-09 12:24:21 51°10.078 2°36.509 13.0976 3.959591 32.037234 -2.871232
2007-05-09 12:24:26 51°10.059 2°36.508 13.1022 3.959591 32.033475 -2.871232
2007-05-09 12:24:31 51°10.04 2°36.509 13.1118 3.959487 32.029534 -2.871232
2007-05-09 12:24:37 51°10.017 2°36.507 13.1267 3.959487 32.029534 -2.871232
2007-05-09 12:24:41 51°10.002 2°36.507 13.1382 3.95959 32.027462 -2.871232
2007-05-09 12:24:46 51°9.983 2°36.507 13.1517 3.959383 32.022588 -2.871232
2007-05-09 12:24:51 51°9.964 2°36.507 13.164 3.958554 32.012859 -2.871232
2007-05-09 12:24:56 51°9.945 2°36.506 13.178 3.957102 31.999029 -2.871232
2007-05-09 12:25:02 51°9.922 2°36.507 13.1927 3.955236 31.979213 -2.871232
2007-05-09 12:25:06 51°9.907 2°36.508 13.1957 3.955236 31.979213 -2.871232
2007-05-09 12:25:11 51°9.888 2°36.509 13.2006 3.95337 31.954157 -2.871232
2007-05-09 12:25:16 51°9.87 2°36.511 13.2053 3.950674 31.917907 -2.871232
2007-05-09 12:25:22 51°9.847 2°36.513 13.2033 3.948497 31.887845 -2.871232
2007-05-09 12:25:26 51°9.832 2°36.515 13.2034 3.946216 31.854636 -2.871232
2007-05-09 12:25:31 51°9.813 2°36.517 13.1968 3.944246 31.823506 -2.871232
2007-05-09 12:25:36 51°9.794 2°36.519 13.1937 3.944246 31.823506 -2.871232
2007-05-09 12:25:41 51°9.775 2°36.521 13.1882 3.942899 31.801714 -2.871232
2007-05-09 12:25:46 51°9.756 2°36.522 13.1873 3.942069 31.786823 -2.871232
2007-05-09 12:25:51 51°9.738 2°36.524 13.1764 3.941343 31.7751 -2.871232
2007-05-09 12:25:56 51°9.719 2°36.526 13.1681 3.940721 31.765798 -2.871232
2007-05-09 12:26:01 51°9.7 2°36.528 13.1653 3.940514 31.763936 -2.871232
2007-05-09 12:26:06 51°9.681 2°36.53 13.1585 3.940514 31.763936 -2.871232
2007-05-09 12:26:11 51°9.662 2°36.531 13.1551 3.940307 31.764303 -2.871232
2007-05-09 12:26:16 51°9.644 2°36.533 13.1562 3.94041 31.767463 -2.871232
2007-05-09 12:26:21 51°9.625 2°36.535 13.1501 3.940307 31.770248 -2.871232
2007-05-09 12:26:26 51°9.606 2°36.536 13.1498 3.9401 31.774332 -2.871232
2007-05-09 12:26:31 51°9.587 2°36.538 13.1485 3.939996 31.778606 -2.871232
2007-05-09 12:26:37 51°9.564 2°36.54 13.144 3.939996 31.778606 -2.871232
2007-05-09 12:26:41 51°9.549 2°36.542 13.1397 3.939789 31.782693 -2.871232
2007-05-09 12:26:46 51°9.531 2°36.543 13.1403 3.939582 31.785294 -2.871232
2007-05-09 12:26:51 51°9.512 2°36.545 13.1364 3.939271 31.785475 -2.871232
2007-05-09 12:26:57 51°9.489 2°36.547 13.1361 3.93896 31.785656 -2.871232
2007-05-09 12:27:01 51°9.473 2°36.548 13.1322 3.938752 31.786025 -2.871232
2007-05-09 12:27:06 51°9.455 2°36.55 13.1338 3.938752 31.786025 -2.871232
2007-05-09 12:27:11 51°9.436 2°36.551 13.1333 3.938234 31.784342 -2.871232
2007-05-09 12:27:17 51°9.413 2°36.554 13.1296 3.937923 31.785268 -2.871232
2007-05-09 12:27:22 51°9.394 2°36.555 13.1313 3.937716 31.785637 -2.871232
2007-05-09 12:27:26 51°9.379 2°36.556 13.1311 3.937405 31.785074 -2.871232
2007-05-09 12:27:31 51°9.36 2°36.558 13.1268 3.937198 31.785443 -2.871232
2007-05-09 12:27:36 51°9.341 2°36.559 13.1248 3.937198 31.785443 -2.871232
2007-05-09 12:27:41 51°9.322 2°36.56 13.1285 3.936783 31.782458 -2.871232
2007-05-09 12:27:46 51°9.303 2°36.562 13.1279 3.936472 31.780405 -2.871232
2007-05-09 12:27:51 51°9.284 2°36.564 13.132 3.936265 31.78003 -2.871232
2007-05-09 12:27:56 51°9.266 2°36.569 13.1347 3.936161 31.779097 -2.871232
2007-05-09 12:28:01 51°9.248 2°36.573 13.1375 3.935746 31.776857 -2.871232
2007-05-09 12:28:06 51°9.231 2°36.579 13.1427 3.935746 31.776857 -2.871232
2007-05-09 12:28:11 51°9.216 2°36.585 13.1424 3.935228 31.774428 -2.871232
2007-05-09 12:28:16 51°9.201 2°36.591 13.1473 3.934813 31.771443 -2.871232
2007-05-09 12:28:21 51°9.187 2°36.597 13.1445 3.934088 31.764915 -2.871232
2007-05-09 12:28:27 51°9.17 2°36.605 13.1491 3.933673 31.759697 -2.871232
2007-05-09 12:28:31 51°9.16 2°36.611 13.1535 3.933258 31.753735 -2.871232
2007-05-09 12:28:37 51°9.147 2°36.62 13.153 3.933258 31.753735 -2.871232
2007-05-09 12:28:41 51°9.138 2°36.626 13.1517 3.932636 31.745165 -2.871232
2007-05-09 12:28:46 51°9.129 2°36.634 13.1526 3.932325 31.740138 -2.871232
2007-05-09 12:28:51 51°9.122 2°36.642 13.1557 3.932118 31.736043 -2.871232
2007-05-09 12:28:57 51°9.113 2°36.652 13.1568 3.9316 31.729153 -2.871232
2007-05-09 12:29:01 51°9.108 2°36.658 13.1566 3.931289 31.724128 -2.871232
2007-05-09 12:29:06 51°9.103 2°36.666 13.1531 3.931289 31.724128 -2.871232
2007-05-09 12:29:11 51°9.098 2°36.675 13.1558 3.930667 31.716308 -2.871232
2007-05-09 12:29:17 51°9.093 2°36.684 13.1522 3.930148 31.711649 -2.871232
2007-05-09 12:29:22 51°9.089 2°36.693 13.154 3.929423 31.704384 -2.871232
2007-05-09 12:29:26 51°9.087 2°36.699 13.1543 3.929112 31.700104 -2.871232
2007-05-09 12:29:31 51°9.086 2°36.707 13.1547 3.928593 31.694704 -2.871232
2007-05-09 12:29:36 51°9.085 2°36.715 13.1571 3.928593 31.694704 -2.871232
2007-05-09 12:29:41 51°9.084 2°36.723 13.1625 3.927971 31.689856 -2.871232
2007-05-09 12:29:46 51°9.084 2°36.731 13.1638 3.92766 31.687803 -2.871232
2007-05-09 12:29:51 51°9.085 2°36.739 13.1701 3.927246 31.684077 -2.871232
2007-05-09 12:29:56 51°9.086 2°36.747 13.168 3.926831 31.68035 -2.871232
2007-05-09 12:30:01 51°9.087 2°36.754 13.1707 3.926727 31.678677 -2.871232
2007-05-09 12:30:06 51°9.09 2°36.762 13.1709 3.926727 31.678677 -2.871232
2007-05-09 12:30:11 51°9.093 2°36.771 13.1739 3.926624 31.677003 -2.871232
2007-05-09 12:30:16 51°9.096 2°36.78 13.1755 3.926727 31.67571 -2.871232
2007-05-09 12:30:21 51°9.099 2°36.789 13.1764 3.926935 31.675348 -2.871232
2007-05-09 12:30:26 51°9.102 2°36.799 13.1761 3.927142 31.674986 -2.871232
2007-05-09 12:30:31 51°9.104 2°36.809 13.1792 3.927453 31.675555 -2.871232
2007-05-09 12:30:36 51°9.106 2°36.82 13.1769 3.927453 31.675555 -2.871232
2007-05-09 12:30:41 51°9.109 2°36.831 13.1793 3.927867 31.677798 -2.871232
2007-05-09 12:30:46 51°9.111 2°36.843 13.1796 3.928178 31.677625 -2.871232
2007-05-09 12:30:51 51°9.113 2°36.854 13.1816 3.928489 31.678936 -2.871232
2007-05-09 12:30:57 51°9.116 2°36.869 13.1809 3.928904 31.680437 -2.871232
2007-05-09 12:31:01 51°9.117 2°36.879 13.1799 3.929111 31.680816 -2.871232
2007-05-09 12:31:06 51°9.119 2°36.891 13.1819 3.929111 31.680816 -2.871232
2007-05-09 12:31:11 51°9.121 2°36.904 13.1762 3.929526 31.683799 -2.871232
2007-05-09 12:31:17 51°9.122 2°36.92 13.1795 3.92963 31.683989 -2.871232
2007-05-09 12:31:21 51°9.124 2°36.93 13.1776 3.92994 31.686041 -2.871232
2007-05-09 12:31:26 51°9.125 2°36.943 13.1755 3.930148 31.687161 -2.871232
2007-05-09 12:31:31 51°9.127 2°36.956 13.1762 3.930251 31.688092 -2.871232
2007-05-09 12:31:37 51°9.129 2°36.972 13.177 3.930251 31.688092 -2.871232
2007-05-09 12:31:41 51°9.131 2°36.983 13.1758 3.930355 31.688282 -2.871232
2007-05-09 12:31:46 51°9.132 2°36.997 13.1741 3.930459 31.689954 -2.871232
2007-05-09 12:31:51 51°9.135 2°37.01 13.1747 3.930459 31.689954 -2.871232
2007-05-09 12:31:56 51°9.136 2°37.023 13.173 3.930251 31.688834 -2.871232
2007-05-09 12:32:01 51°9.138 2°37.035 13.1756 3.930251 31.688834 -2.871232
2007-05-09 12:32:06 51°9.14 2°37.048 13.1744 3.930251 31.688834 -2.871232
2007-05-09 12:32:11 51°9.142 2°37.059 13.1744 3.930251 31.688834 -2.871232
2007-05-09 12:32:16 51°9.143 2°37.071 13.1786 3.930355 31.690506 -2.871232
2007-05-09 12:32:22 51°9.145 2°37.084 13.1733 3.930355 31.691248 -2.871232
2007-05-09 12:32:26 51°9.146 2°37.092 13.1745 3.930252 31.690317 -2.871232
2007-05-09 12:32:31 51°9.147 2°37.103 13.1733 3.930148 31.690127 -2.871232
2007-05-09 12:32:36 51°9.148 2°37.114 13.1742 3.930148 31.690127 -2.871232
2007-05-09 12:32:41 51°9.149 2°37.124 13.1729 3.930044 31.689196 -2.871232
2007-05-09 12:32:47 51°9.15 2°37.135 13.174 3.930252 31.690317 -2.871232
2007-05-09 12:32:51 51°9.15 2°37.142 13.1758 3.930148 31.688644 -2.871232
2007-05-09 12:32:57 51°9.151 2°37.152 13.1743 3.930252 31.690317 -2.871232
2007-05-09 12:33:01 51°9.151 2°37.158 13.1789 3.930148 31.689386 -2.871232
2007-05-09 12:33:06 51°9.151 2°37.165 13.1731 3.930148 31.689386 -2.871232
2007-05-09 12:33:11 51°9.151 2°37.17 13.1719 3.930252 31.690317 -2.871232
2007-05-09 12:33:17 51°9.151 2°37.175 13.1725 3.930252 31.690317 -2.871232
2007-05-09 12:33:21 51°9.151 2°37.178 13.1754 3.930251 31.689575 -2.871232
2007-05-09 12:33:26 51°9.151 2°37.18 13.171 3.930251 31.688834 -2.871232
2007-05-09 12:33:31 51°9.151 2°37.181 13.1721 3.930355 31.689765 -2.871232
2007-05-09 12:33:37 51°9.15 2°37.182 13.1742 3.930355 31.689765 -2.871232
2007-05-09 12:33:41 51°9.15 2°37.183 13.1781 3.930355 31.689023 -2.871232
2007-05-09 12:33:46 51°9.15 2°37.184 13.1743 3.930355 31.690506 -2.871232
2007-05-09 12:33:51 51°9.149 2°37.185 13.1729 3.930252 31.690317 -2.871232
2007-05-09 12:33:57 51°9.149 2°37.186 13.1747 3.930252 31.691059 -2.871232
2007-05-09 12:34:01 51°9.149 2°37.186 13.1707 3.930148 31.690869 -2.871232
2007-05-09 12:34:06 51°9.148 2°37.187 13.1716 3.930148 31.690869 -2.871232
2007-05-09 12:34:11 51°9.148 2°37.188 13.1739 3.930148 31.690127 -2.871232
2007-05-09 12:34:17 51°9.147 2°37.189 13.1739 3.930148 31.690127 -2.871232
2007-05-09 12:34:21 51°9.146 2°37.19 13.1714 3.930148 31.690869 -2.871232
2007-05-09 12:34:26 51°9.146 2°37.19 13.1701 3.930044 31.689938 -2.871232
2007-05-09 12:34:31 51°9.146 2°37.191 13.1749 3.930044 31.690679 -2.871232
2007-05-09 12:34:36 51°9.145 2°37.192 13.1724 3.930044 31.690679 -2.871232
2007-05-09 12:34:42 51°9.145 2°37.194 13.1749 3.929941 31.69049 -2.871232
2007-05-09 12:34:46 51°9.145 2°37.194 13.1732 3.929941 31.689748 -2.871232
2007-05-09 12:34:51 51°9.145 2°37.196 13.1756 3.930044 31.689938 -2.871232
2007-05-09 12:34:56 51°9.145 2°37.197 13.177 3.930044 31.690679 -2.871232
2007-05-09 12:35:01 51°9.144 2°37.197 13.1783 3.930044 31.689938 -2.871232
2007-05-09 12:35:06 51°9.144 2°37.199 13.1783 3.930044 31.689938 -2.871232
2007-05-09 12:35:11 51°9.144 2°37.199 13.177 3.930044 31.689938 -2.871232
2007-05-09 12:35:17 51°9.144 2°37.201 13.1735 3.929941 31.688265 -2.871232
2007-05-09 12:35:21 51°9.144 2°37.202 13.1768 3.930044 31.689196 -2.871232
2007-05-09 12:35:26 51°9.144 2°37.202 13.1781 3.930252 31.690317 -2.871232
2007-05-09 12:35:31 51°9.143 2°37.203 13.1771 3.930355 31.689765 -2.871232
2007-05-09 12:35:37 51°9.143 2°37.204 13.1768 3.930355 31.689765 -2.871232
2007-05-09 12:35:41 51°9.143 2°37.205 13.1806 3.930355 31.689765 -2.871232
2007-05-09 12:35:46 51°9.143 2°37.206 13.1815 3.930251 31.688834 -2.871232
2007-05-09 12:35:51 51°9.143 2°37.207 13.179 3.930355 31.689765 -2.871232
2007-05-09 12:35:57 51°9.143 2°37.208 13.1815 3.930355 31.689023 -2.871232
2007-05-09 12:36:01 51°9.143 2°37.208 13.1779 3.930459 31.689213 -2.871232
2007-05-09 12:36:06 51°9.142 2°37.209 13.1817 3.930459 31.689213 -2.871232
2007-05-09 12:36:11 51°9.141 2°37.209 13.1829 3.930459 31.689213 -2.871232
2007-05-09 12:36:17 51°9.141 2°37.21 13.1806 3.930562 31.689403 -2.871232
2007-05-09 12:36:21 51°9.141 2°37.21 13.1849 3.927971 31.666128 -2.871232
2007-05-09 12:36:26 51°9.141 2°37.211 13.185 3.930666 31.689592 -2.871232
2007-05-09 12:36:31 51°9.141 2°37.212 13.1843 3.93077 31.690523 -2.871232
2007-05-09 12:36:36 51°9.141 2°37.212 13.1812 3.93077 31.690523 -2.871232
2007-05-09 12:36:42 51°9.141 2°37.213 13.1808 3.930666 31.688851 -2.871232
2007-05-09 12:36:46 51°9.14 2°37.214 13.184 3.930666 31.688109 -2.871232
2007-05-09 12:36:51 51°9.14 2°37.214 13.1791 3.930666 31.688109 -2.871232
2007-05-09 12:36:56 51°9.14 2°37.215 13.1815 3.930666 31.687368 -2.871232
2007-05-09 12:37:02 51°9.139 2°37.215 13.1828 3.930666 31.686627 -2.871232
2007-05-09 12:37:06 51°9.139 2°37.216 13.1816 3.930666 31.686627 -2.871232
2007-05-09 12:37:11 51°9.139 2°37.216 13.1787 3.930562 31.686437 -2.871232
2007-05-09 12:37:17 51°9.139 2°37.217 13.1795 3.93077 31.688299 -2.871232
2007-05-09 12:37:21 51°9.139 2°37.217 13.1786 3.930666 31.687368 -2.871232
2007-05-09 12:37:26 51°9.139 2°37.217 13.1818 3.930666 31.688109 -2.871232